<?xml version="1.0" encoding="UTF-8" standalone="no" ?>
<gpx xmlns="http://www.topografix.com/GPX/1/1" xmlns:xsi="http://www.w3.org/2001/XMLSchema-instance" xsi:schemaLocation="http://www.topografix.com/GPX/1/1 http://www.topografix.com/GPX/1/1/gpx.xsd" version="1.1" creator="VisuGPX - https://www.visugpx.com">
  <metadata>
    <name>GR34 : de Port à la Duc au Fort La Latte</name>
    <desc><![CDATA[sur le GR34 le 26/09/2013]]></desc>
  </metadata>
  <trk>
    <name><![CDATA[GR34 : de Port à la Duc au Fort La Latte_1]]></name>
    <trkseg>
      <trkpt lat="48.62045" lon="-2.33834">
        <ele>10.8</ele>
        <time>2013-09-26T07:17:32Z</time>
      </trkpt>
      <trkpt lat="48.62032" lon="-2.33818">
        <ele>3.599999</ele>
        <time>2013-09-26T07:17:34Z</time>
      </trkpt>
      <trkpt lat="48.6203" lon="-2.33805">
        <ele>21.8</ele>
        <time>2013-09-26T07:17:39Z</time>
      </trkpt>
      <trkpt lat="48.62031" lon="-2.33794">
        <ele>40.9</ele>
        <time>2013-09-26T07:17:48Z</time>
      </trkpt>
      <trkpt lat="48.62034" lon="-2.3378">
        <ele>42.4</ele>
        <time>2013-09-26T07:17:49Z</time>
      </trkpt>
      <trkpt lat="48.62034" lon="-2.3378">
        <ele>45.9</ele>
        <time>2013-09-26T07:17:54Z</time>
      </trkpt>
      <trkpt lat="48.62038" lon="-2.33767">
        <ele>47</ele>
        <time>2013-09-26T07:17:55Z</time>
      </trkpt>
      <trkpt lat="48.62038" lon="-2.33767">
        <ele>49.6</ele>
        <time>2013-09-26T07:18:00Z</time>
      </trkpt>
      <trkpt lat="48.62042" lon="-2.33754">
        <ele>52</ele>
        <time>2013-09-26T07:18:01Z</time>
      </trkpt>
      <trkpt lat="48.62047" lon="-2.33744">
        <ele>55.3</ele>
        <time>2013-09-26T07:18:06Z</time>
      </trkpt>
      <trkpt lat="48.62051" lon="-2.33733">
        <ele>54.5</ele>
        <time>2013-09-26T07:18:11Z</time>
      </trkpt>
      <trkpt lat="48.62055" lon="-2.33721">
        <ele>53.6</ele>
        <time>2013-09-26T07:18:16Z</time>
      </trkpt>
      <trkpt lat="48.62059" lon="-2.3371">
        <ele>53</ele>
        <time>2013-09-26T07:18:21Z</time>
      </trkpt>
      <trkpt lat="48.62063" lon="-2.337">
        <ele>52.6</ele>
        <time>2013-09-26T07:18:26Z</time>
      </trkpt>
      <trkpt lat="48.62067" lon="-2.3369">
        <ele>52.4</ele>
        <time>2013-09-26T07:18:31Z</time>
      </trkpt>
      <trkpt lat="48.62071" lon="-2.33679">
        <ele>52.2</ele>
        <time>2013-09-26T07:18:36Z</time>
      </trkpt>
      <trkpt lat="48.62072" lon="-2.33677">
        <ele>52.2</ele>
        <time>2013-09-26T07:18:37Z</time>
      </trkpt>
      <trkpt lat="48.62081" lon="-2.33661">
        <ele>51.9</ele>
        <time>2013-09-26T07:18:46Z</time>
      </trkpt>
      <trkpt lat="48.62085" lon="-2.33652">
        <ele>51.7</ele>
        <time>2013-09-26T07:18:51Z</time>
      </trkpt>
      <trkpt lat="48.6209" lon="-2.33642">
        <ele>51.7</ele>
        <time>2013-09-26T07:18:56Z</time>
      </trkpt>
      <trkpt lat="48.62095" lon="-2.33633">
        <ele>51.6</ele>
        <time>2013-09-26T07:19:01Z</time>
      </trkpt>
      <trkpt lat="48.62101" lon="-2.33626">
        <ele>51.5</ele>
        <time>2013-09-26T07:19:06Z</time>
      </trkpt>
      <trkpt lat="48.62108" lon="-2.33618">
        <ele>51.3</ele>
        <time>2013-09-26T07:19:12Z</time>
      </trkpt>
      <trkpt lat="48.62114" lon="-2.33609">
        <ele>51</ele>
        <time>2013-09-26T07:19:18Z</time>
      </trkpt>
      <trkpt lat="48.62118" lon="-2.33598">
        <ele>50.6</ele>
        <time>2013-09-26T07:19:24Z</time>
      </trkpt>
      <trkpt lat="48.62121" lon="-2.33588">
        <ele>50.3</ele>
        <time>2013-09-26T07:19:29Z</time>
      </trkpt>
      <trkpt lat="48.62125" lon="-2.33576">
        <ele>50</ele>
        <time>2013-09-26T07:19:34Z</time>
      </trkpt>
      <trkpt lat="48.62128" lon="-2.33566">
        <ele>49.8</ele>
        <time>2013-09-26T07:19:39Z</time>
      </trkpt>
      <trkpt lat="48.62129" lon="-2.33564">
        <ele>49.8</ele>
        <time>2013-09-26T07:19:40Z</time>
      </trkpt>
      <trkpt lat="48.62136" lon="-2.33545">
        <ele>49.5</ele>
        <time>2013-09-26T07:19:49Z</time>
      </trkpt>
      <trkpt lat="48.6214" lon="-2.33536">
        <ele>49.2</ele>
        <time>2013-09-26T07:19:54Z</time>
      </trkpt>
      <trkpt lat="48.62145" lon="-2.33526">
        <ele>48.5</ele>
        <time>2013-09-26T07:20:00Z</time>
      </trkpt>
      <trkpt lat="48.6215" lon="-2.33515">
        <ele>47.4</ele>
        <time>2013-09-26T07:20:06Z</time>
      </trkpt>
      <trkpt lat="48.62156" lon="-2.33505">
        <ele>46.2</ele>
        <time>2013-09-26T07:20:12Z</time>
      </trkpt>
      <trkpt lat="48.62162" lon="-2.33495">
        <ele>45</ele>
        <time>2013-09-26T07:20:18Z</time>
      </trkpt>
      <trkpt lat="48.62168" lon="-2.33485">
        <ele>43.8</ele>
        <time>2013-09-26T07:20:24Z</time>
      </trkpt>
      <trkpt lat="48.62174" lon="-2.33477">
        <ele>42.4</ele>
        <time>2013-09-26T07:20:32Z</time>
      </trkpt>
      <trkpt lat="48.62178" lon="-2.33468">
        <ele>41.4</ele>
        <time>2013-09-26T07:20:38Z</time>
      </trkpt>
      <trkpt lat="48.62185" lon="-2.33459">
        <ele>40.3</ele>
        <time>2013-09-26T07:20:44Z</time>
      </trkpt>
      <trkpt lat="48.62186" lon="-2.33458">
        <ele>40.2</ele>
        <time>2013-09-26T07:20:45Z</time>
      </trkpt>
      <trkpt lat="48.62202" lon="-2.33454">
        <ele>38.4</ele>
        <time>2013-09-26T07:20:56Z</time>
      </trkpt>
      <trkpt lat="48.62211" lon="-2.33453">
        <ele>37.4</ele>
        <time>2013-09-26T07:21:02Z</time>
      </trkpt>
      <trkpt lat="48.6222" lon="-2.33452">
        <ele>36.5</ele>
        <time>2013-09-26T07:21:08Z</time>
      </trkpt>
      <trkpt lat="48.62228" lon="-2.3345">
        <ele>35.6</ele>
        <time>2013-09-26T07:21:14Z</time>
      </trkpt>
      <trkpt lat="48.62237" lon="-2.33448">
        <ele>34.8</ele>
        <time>2013-09-26T07:21:20Z</time>
      </trkpt>
      <trkpt lat="48.62245" lon="-2.33444">
        <ele>34.1</ele>
        <time>2013-09-26T07:21:26Z</time>
      </trkpt>
      <trkpt lat="48.62253" lon="-2.33438">
        <ele>33.4</ele>
        <time>2013-09-26T07:21:32Z</time>
      </trkpt>
      <trkpt lat="48.62259" lon="-2.33432">
        <ele>32.8</ele>
        <time>2013-09-26T07:21:37Z</time>
      </trkpt>
      <trkpt lat="48.62265" lon="-2.33425">
        <ele>32.3</ele>
        <time>2013-09-26T07:21:42Z</time>
      </trkpt>
      <trkpt lat="48.62271" lon="-2.33417">
        <ele>31.8</ele>
        <time>2013-09-26T07:21:47Z</time>
      </trkpt>
      <trkpt lat="48.62272" lon="-2.33416">
        <ele>31.7</ele>
        <time>2013-09-26T07:21:48Z</time>
      </trkpt>
      <trkpt lat="48.62282" lon="-2.33402">
        <ele>30.9</ele>
        <time>2013-09-26T07:21:57Z</time>
      </trkpt>
      <trkpt lat="48.62288" lon="-2.33393">
        <ele>30.6</ele>
        <time>2013-09-26T07:22:02Z</time>
      </trkpt>
      <trkpt lat="48.62293" lon="-2.33383">
        <ele>30.2</ele>
        <time>2013-09-26T07:22:08Z</time>
      </trkpt>
      <trkpt lat="48.62297" lon="-2.33373">
        <ele>29.8</ele>
        <time>2013-09-26T07:22:13Z</time>
      </trkpt>
      <trkpt lat="48.62302" lon="-2.33363">
        <ele>29.6</ele>
        <time>2013-09-26T07:22:18Z</time>
      </trkpt>
      <trkpt lat="48.62307" lon="-2.33354">
        <ele>29.3</ele>
        <time>2013-09-26T07:22:23Z</time>
      </trkpt>
      <trkpt lat="48.62311" lon="-2.33345">
        <ele>28.9</ele>
        <time>2013-09-26T07:22:28Z</time>
      </trkpt>
      <trkpt lat="48.62315" lon="-2.33335">
        <ele>28.6</ele>
        <time>2013-09-26T07:22:33Z</time>
      </trkpt>
      <trkpt lat="48.6232" lon="-2.33324">
        <ele>28.1</ele>
        <time>2013-09-26T07:22:39Z</time>
      </trkpt>
      <trkpt lat="48.62325" lon="-2.33313">
        <ele>27.6</ele>
        <time>2013-09-26T07:22:45Z</time>
      </trkpt>
      <trkpt lat="48.62329" lon="-2.33303">
        <ele>27.2</ele>
        <time>2013-09-26T07:22:50Z</time>
      </trkpt>
      <trkpt lat="48.6233" lon="-2.33301">
        <ele>27.1</ele>
        <time>2013-09-26T07:22:51Z</time>
      </trkpt>
      <trkpt lat="48.62337" lon="-2.33283">
        <ele>26.3</ele>
        <time>2013-09-26T07:23:00Z</time>
      </trkpt>
      <trkpt lat="48.62341" lon="-2.33273">
        <ele>25.8</ele>
        <time>2013-09-26T07:23:05Z</time>
      </trkpt>
      <trkpt lat="48.62345" lon="-2.33263">
        <ele>25.4</ele>
        <time>2013-09-26T07:23:10Z</time>
      </trkpt>
      <trkpt lat="48.62349" lon="-2.33254">
        <ele>25</ele>
        <time>2013-09-26T07:23:15Z</time>
      </trkpt>
      <trkpt lat="48.62353" lon="-2.33244">
        <ele>24.7</ele>
        <time>2013-09-26T07:23:20Z</time>
      </trkpt>
      <trkpt lat="48.62357" lon="-2.33234">
        <ele>24.3</ele>
        <time>2013-09-26T07:23:25Z</time>
      </trkpt>
      <trkpt lat="48.62362" lon="-2.33224">
        <ele>24</ele>
        <time>2013-09-26T07:23:30Z</time>
      </trkpt>
      <trkpt lat="48.62366" lon="-2.33214">
        <ele>23.7</ele>
        <time>2013-09-26T07:23:35Z</time>
      </trkpt>
      <trkpt lat="48.6237" lon="-2.33202">
        <ele>23.2</ele>
        <time>2013-09-26T07:23:43Z</time>
      </trkpt>
      <trkpt lat="48.62374" lon="-2.33191">
        <ele>22.7</ele>
        <time>2013-09-26T07:23:49Z</time>
      </trkpt>
      <trkpt lat="48.62378" lon="-2.33181">
        <ele>22.4</ele>
        <time>2013-09-26T07:23:54Z</time>
      </trkpt>
      <trkpt lat="48.62379" lon="-2.33179">
        <ele>22.3</ele>
        <time>2013-09-26T07:23:55Z</time>
      </trkpt>
      <trkpt lat="48.62387" lon="-2.33158">
        <ele>21.5</ele>
        <time>2013-09-26T07:24:06Z</time>
      </trkpt>
      <trkpt lat="48.62393" lon="-2.33147">
        <ele>21.1</ele>
        <time>2013-09-26T07:24:12Z</time>
      </trkpt>
      <trkpt lat="48.62398" lon="-2.33137">
        <ele>20.8</ele>
        <time>2013-09-26T07:24:18Z</time>
      </trkpt>
      <trkpt lat="48.62403" lon="-2.33126">
        <ele>20.3</ele>
        <time>2013-09-26T07:24:24Z</time>
      </trkpt>
      <trkpt lat="48.62408" lon="-2.33116">
        <ele>19.8</ele>
        <time>2013-09-26T07:24:30Z</time>
      </trkpt>
      <trkpt lat="48.62414" lon="-2.33106">
        <ele>19.4</ele>
        <time>2013-09-26T07:24:36Z</time>
      </trkpt>
      <trkpt lat="48.62419" lon="-2.33097">
        <ele>19</ele>
        <time>2013-09-26T07:24:41Z</time>
      </trkpt>
      <trkpt lat="48.62425" lon="-2.3309">
        <ele>18.6</ele>
        <time>2013-09-26T07:24:46Z</time>
      </trkpt>
      <trkpt lat="48.6243" lon="-2.3308">
        <ele>18.2</ele>
        <time>2013-09-26T07:24:52Z</time>
      </trkpt>
      <trkpt lat="48.62436" lon="-2.3307">
        <ele>17.8</ele>
        <time>2013-09-26T07:24:58Z</time>
      </trkpt>
      <trkpt lat="48.62437" lon="-2.33068">
        <ele>17.7</ele>
        <time>2013-09-26T07:24:59Z</time>
      </trkpt>
      <trkpt lat="48.62448" lon="-2.3305">
        <ele>17.1</ele>
        <time>2013-09-26T07:25:10Z</time>
      </trkpt>
      <trkpt lat="48.62454" lon="-2.33042">
        <ele>16.9</ele>
        <time>2013-09-26T07:25:15Z</time>
      </trkpt>
      <trkpt lat="48.62459" lon="-2.33034">
        <ele>16.6</ele>
        <time>2013-09-26T07:25:20Z</time>
      </trkpt>
      <trkpt lat="48.62465" lon="-2.33026">
        <ele>16.4</ele>
        <time>2013-09-26T07:25:25Z</time>
      </trkpt>
      <trkpt lat="48.6247" lon="-2.33018">
        <ele>16.2</ele>
        <time>2013-09-26T07:25:30Z</time>
      </trkpt>
      <trkpt lat="48.62476" lon="-2.3301">
        <ele>16</ele>
        <time>2013-09-26T07:25:35Z</time>
      </trkpt>
      <trkpt lat="48.62482" lon="-2.33001">
        <ele>27.1</ele>
        <time>2013-09-26T07:25:41Z</time>
      </trkpt>
      <trkpt lat="48.62487" lon="-2.32991">
        <ele>32.6</ele>
        <time>2013-09-26T07:25:47Z</time>
      </trkpt>
      <trkpt lat="48.62493" lon="-2.32981">
        <ele>33.6</ele>
        <time>2013-09-26T07:25:53Z</time>
      </trkpt>
      <trkpt lat="48.62498" lon="-2.32972">
        <ele>33.8</ele>
        <time>2013-09-26T07:25:58Z</time>
      </trkpt>
      <trkpt lat="48.62504" lon="-2.32963">
        <ele>33.9</ele>
        <time>2013-09-26T07:26:04Z</time>
      </trkpt>
      <trkpt lat="48.62505" lon="-2.32961">
        <ele>33.8</ele>
        <time>2013-09-26T07:26:05Z</time>
      </trkpt>
      <trkpt lat="48.62517" lon="-2.32944">
        <ele>35.3</ele>
        <time>2013-09-26T07:26:16Z</time>
      </trkpt>
      <trkpt lat="48.62523" lon="-2.32935">
        <ele>31.5</ele>
        <time>2013-09-26T07:26:22Z</time>
      </trkpt>
      <trkpt lat="48.62528" lon="-2.32927">
        <ele>32.6</ele>
        <time>2013-09-26T07:26:27Z</time>
      </trkpt>
      <trkpt lat="48.62534" lon="-2.32919">
        <ele>32.9</ele>
        <time>2013-09-26T07:26:32Z</time>
      </trkpt>
      <trkpt lat="48.62539" lon="-2.32909">
        <ele>32.8</ele>
        <time>2013-09-26T07:26:40Z</time>
      </trkpt>
      <trkpt lat="48.62545" lon="-2.32898">
        <ele>34.1</ele>
        <time>2013-09-26T07:26:46Z</time>
      </trkpt>
      <trkpt lat="48.6255" lon="-2.32888">
        <ele>33.8</ele>
        <time>2013-09-26T07:26:52Z</time>
      </trkpt>
      <trkpt lat="48.62555" lon="-2.32877">
        <ele>34.3</ele>
        <time>2013-09-26T07:26:58Z</time>
      </trkpt>
      <trkpt lat="48.6256" lon="-2.32867">
        <ele>32.8</ele>
        <time>2013-09-26T07:27:04Z</time>
      </trkpt>
      <trkpt lat="48.62566" lon="-2.32857">
        <ele>34</ele>
        <time>2013-09-26T07:27:10Z</time>
      </trkpt>
      <trkpt lat="48.62567" lon="-2.32856">
        <ele>34.1</ele>
        <time>2013-09-26T07:27:11Z</time>
      </trkpt>
      <trkpt lat="48.62579" lon="-2.3284">
        <ele>32.9</ele>
        <time>2013-09-26T07:27:22Z</time>
      </trkpt>
      <trkpt lat="48.62586" lon="-2.32834">
        <ele>33.3</ele>
        <time>2013-09-26T07:27:27Z</time>
      </trkpt>
      <trkpt lat="48.62592" lon="-2.32828">
        <ele>34</ele>
        <time>2013-09-26T07:27:32Z</time>
      </trkpt>
      <trkpt lat="48.62598" lon="-2.32821">
        <ele>34</ele>
        <time>2013-09-26T07:27:37Z</time>
      </trkpt>
      <trkpt lat="48.62604" lon="-2.32812">
        <ele>35.5</ele>
        <time>2013-09-26T07:27:42Z</time>
      </trkpt>
      <trkpt lat="48.62609" lon="-2.32803">
        <ele>35.4</ele>
        <time>2013-09-26T07:27:47Z</time>
      </trkpt>
      <trkpt lat="48.62613" lon="-2.32792">
        <ele>33.6</ele>
        <time>2013-09-26T07:27:53Z</time>
      </trkpt>
      <trkpt lat="48.62617" lon="-2.3278">
        <ele>33.4</ele>
        <time>2013-09-26T07:27:59Z</time>
      </trkpt>
      <trkpt lat="48.62621" lon="-2.32769">
        <ele>33.8</ele>
        <time>2013-09-26T07:28:05Z</time>
      </trkpt>
      <trkpt lat="48.62626" lon="-2.32757">
        <ele>33.6</ele>
        <time>2013-09-26T07:28:11Z</time>
      </trkpt>
      <trkpt lat="48.62626" lon="-2.32755">
        <ele>33.6</ele>
        <time>2013-09-26T07:28:12Z</time>
      </trkpt>
      <trkpt lat="48.62633" lon="-2.32733">
        <ele>32.2</ele>
        <time>2013-09-26T07:28:23Z</time>
      </trkpt>
      <trkpt lat="48.62636" lon="-2.32721">
        <ele>33.6</ele>
        <time>2013-09-26T07:28:29Z</time>
      </trkpt>
      <trkpt lat="48.62641" lon="-2.32709">
        <ele>34.1</ele>
        <time>2013-09-26T07:28:35Z</time>
      </trkpt>
      <trkpt lat="48.62646" lon="-2.327">
        <ele>34.1</ele>
        <time>2013-09-26T07:28:40Z</time>
      </trkpt>
      <trkpt lat="48.62652" lon="-2.32693">
        <ele>34.1</ele>
        <time>2013-09-26T07:28:45Z</time>
      </trkpt>
      <trkpt lat="48.62659" lon="-2.32686">
        <ele>34.2</ele>
        <time>2013-09-26T07:28:50Z</time>
      </trkpt>
      <trkpt lat="48.62666" lon="-2.32681">
        <ele>33.7</ele>
        <time>2013-09-26T07:28:55Z</time>
      </trkpt>
      <trkpt lat="48.62673" lon="-2.32677">
        <ele>32.9</ele>
        <time>2013-09-26T07:29:00Z</time>
      </trkpt>
      <trkpt lat="48.62682" lon="-2.32673">
        <ele>32.3</ele>
        <time>2013-09-26T07:29:06Z</time>
      </trkpt>
      <trkpt lat="48.62689" lon="-2.3267">
        <ele>33.3</ele>
        <time>2013-09-26T07:29:11Z</time>
      </trkpt>
      <trkpt lat="48.62696" lon="-2.32667">
        <ele>33.5</ele>
        <time>2013-09-26T07:29:16Z</time>
      </trkpt>
      <trkpt lat="48.62698" lon="-2.32666">
        <ele>33.5</ele>
        <time>2013-09-26T07:29:17Z</time>
      </trkpt>
      <trkpt lat="48.62709" lon="-2.32654">
        <ele>34.3</ele>
        <time>2013-09-26T07:29:26Z</time>
      </trkpt>
      <trkpt lat="48.62714" lon="-2.32644">
        <ele>33.4</ele>
        <time>2013-09-26T07:29:31Z</time>
      </trkpt>
      <trkpt lat="48.62718" lon="-2.32634">
        <ele>33.8</ele>
        <time>2013-09-26T07:29:36Z</time>
      </trkpt>
      <trkpt lat="48.62722" lon="-2.32625">
        <ele>33.1</ele>
        <time>2013-09-26T07:29:41Z</time>
      </trkpt>
      <trkpt lat="48.62727" lon="-2.32613">
        <ele>33.7</ele>
        <time>2013-09-26T07:29:47Z</time>
      </trkpt>
      <trkpt lat="48.62732" lon="-2.32602">
        <ele>35</ele>
        <time>2013-09-26T07:29:53Z</time>
      </trkpt>
      <trkpt lat="48.62736" lon="-2.32593">
        <ele>34.8</ele>
        <time>2013-09-26T07:29:58Z</time>
      </trkpt>
      <trkpt lat="48.62742" lon="-2.32585">
        <ele>33.4</ele>
        <time>2013-09-26T07:30:03Z</time>
      </trkpt>
      <trkpt lat="48.62748" lon="-2.32576">
        <ele>33.6</ele>
        <time>2013-09-26T07:30:09Z</time>
      </trkpt>
      <trkpt lat="48.62752" lon="-2.32564">
        <ele>33.4</ele>
        <time>2013-09-26T07:30:16Z</time>
      </trkpt>
      <trkpt lat="48.62757" lon="-2.32554">
        <ele>33.8</ele>
        <time>2013-09-26T07:30:36Z</time>
      </trkpt>
      <trkpt lat="48.62758" lon="-2.32553">
        <ele>33.9</ele>
        <time>2013-09-26T07:30:37Z</time>
      </trkpt>
      <trkpt lat="48.62769" lon="-2.32538">
        <ele>33.8</ele>
        <time>2013-09-26T07:30:47Z</time>
      </trkpt>
      <trkpt lat="48.62775" lon="-2.32528">
        <ele>34.1</ele>
        <time>2013-09-26T07:30:53Z</time>
      </trkpt>
      <trkpt lat="48.6278" lon="-2.32517">
        <ele>34.3</ele>
        <time>2013-09-26T07:30:59Z</time>
      </trkpt>
      <trkpt lat="48.62785" lon="-2.32506">
        <ele>34.1</ele>
        <time>2013-09-26T07:31:05Z</time>
      </trkpt>
      <trkpt lat="48.62789" lon="-2.32495">
        <ele>33</ele>
        <time>2013-09-26T07:31:11Z</time>
      </trkpt>
      <trkpt lat="48.62793" lon="-2.32484">
        <ele>33.3</ele>
        <time>2013-09-26T07:31:17Z</time>
      </trkpt>
      <trkpt lat="48.62797" lon="-2.32472">
        <ele>31</ele>
        <time>2013-09-26T07:31:23Z</time>
      </trkpt>
      <trkpt lat="48.628" lon="-2.32459">
        <ele>33.5</ele>
        <time>2013-09-26T07:31:29Z</time>
      </trkpt>
      <trkpt lat="48.62803" lon="-2.32447">
        <ele>32.6</ele>
        <time>2013-09-26T07:31:35Z</time>
      </trkpt>
      <trkpt lat="48.62806" lon="-2.32435">
        <ele>32.6</ele>
        <time>2013-09-26T07:31:41Z</time>
      </trkpt>
      <trkpt lat="48.62807" lon="-2.32433">
        <ele>33.1</ele>
        <time>2013-09-26T07:31:42Z</time>
      </trkpt>
      <trkpt lat="48.62813" lon="-2.3241">
        <ele>33.2</ele>
        <time>2013-09-26T07:31:53Z</time>
      </trkpt>
      <trkpt lat="48.62816" lon="-2.32398">
        <ele>30.8</ele>
        <time>2013-09-26T07:31:59Z</time>
      </trkpt>
      <trkpt lat="48.6282" lon="-2.32386">
        <ele>32.2</ele>
        <time>2013-09-26T07:32:05Z</time>
      </trkpt>
      <trkpt lat="48.62823" lon="-2.32376">
        <ele>32.9</ele>
        <time>2013-09-26T07:32:10Z</time>
      </trkpt>
      <trkpt lat="48.62826" lon="-2.32365">
        <ele>32.9</ele>
        <time>2013-09-26T07:32:15Z</time>
      </trkpt>
      <trkpt lat="48.62829" lon="-2.32354">
        <ele>33.6</ele>
        <time>2013-09-26T07:32:20Z</time>
      </trkpt>
      <trkpt lat="48.62831" lon="-2.32343">
        <ele>33.6</ele>
        <time>2013-09-26T07:32:25Z</time>
      </trkpt>
      <trkpt lat="48.62834" lon="-2.32332">
        <ele>32.6</ele>
        <time>2013-09-26T07:32:30Z</time>
      </trkpt>
      <trkpt lat="48.62837" lon="-2.32321">
        <ele>32.2</ele>
        <time>2013-09-26T07:32:35Z</time>
      </trkpt>
      <trkpt lat="48.6284" lon="-2.32311">
        <ele>33.2</ele>
        <time>2013-09-26T07:32:40Z</time>
      </trkpt>
      <trkpt lat="48.62843" lon="-2.323">
        <ele>33</ele>
        <time>2013-09-26T07:32:45Z</time>
      </trkpt>
      <trkpt lat="48.62843" lon="-2.32298">
        <ele>33.2</ele>
        <time>2013-09-26T07:32:46Z</time>
      </trkpt>
      <trkpt lat="48.62849" lon="-2.32279">
        <ele>32.9</ele>
        <time>2013-09-26T07:32:55Z</time>
      </trkpt>
      <trkpt lat="48.62853" lon="-2.32267">
        <ele>32.7</ele>
        <time>2013-09-26T07:33:01Z</time>
      </trkpt>
      <trkpt lat="48.62857" lon="-2.32257">
        <ele>33.1</ele>
        <time>2013-09-26T07:33:06Z</time>
      </trkpt>
      <trkpt lat="48.62861" lon="-2.32247">
        <ele>33.6</ele>
        <time>2013-09-26T07:33:11Z</time>
      </trkpt>
      <trkpt lat="48.62865" lon="-2.32235">
        <ele>33.2</ele>
        <time>2013-09-26T07:33:17Z</time>
      </trkpt>
      <trkpt lat="48.62865" lon="-2.32224">
        <ele>32.5</ele>
        <time>2013-09-26T07:33:22Z</time>
      </trkpt>
      <trkpt lat="48.62866" lon="-2.32213">
        <ele>33.4</ele>
        <time>2013-09-26T07:33:27Z</time>
      </trkpt>
      <trkpt lat="48.62868" lon="-2.322">
        <ele>33.5</ele>
        <time>2013-09-26T07:33:33Z</time>
      </trkpt>
      <trkpt lat="48.62867" lon="-2.32187">
        <ele>34.4</ele>
        <time>2013-09-26T07:33:39Z</time>
      </trkpt>
      <trkpt lat="48.62866" lon="-2.32174">
        <ele>32.8</ele>
        <time>2013-09-26T07:33:45Z</time>
      </trkpt>
      <trkpt lat="48.62864" lon="-2.32162">
        <ele>33.7</ele>
        <time>2013-09-26T07:33:51Z</time>
      </trkpt>
      <trkpt lat="48.62863" lon="-2.3216">
        <ele>33.6</ele>
        <time>2013-09-26T07:33:52Z</time>
      </trkpt>
      <trkpt lat="48.62859" lon="-2.32138">
        <ele>33.9</ele>
        <time>2013-09-26T07:34:03Z</time>
      </trkpt>
      <trkpt lat="48.6286" lon="-2.32125">
        <ele>34.4</ele>
        <time>2013-09-26T07:34:09Z</time>
      </trkpt>
      <trkpt lat="48.62861" lon="-2.32114">
        <ele>34</ele>
        <time>2013-09-26T07:34:15Z</time>
      </trkpt>
      <trkpt lat="48.62862" lon="-2.32101">
        <ele>36.1</ele>
        <time>2013-09-26T07:34:22Z</time>
      </trkpt>
      <trkpt lat="48.62865" lon="-2.32089">
        <ele>36.8</ele>
        <time>2013-09-26T07:34:29Z</time>
      </trkpt>
      <trkpt lat="48.62868" lon="-2.32078">
        <ele>36.9</ele>
        <time>2013-09-26T07:34:35Z</time>
      </trkpt>
      <trkpt lat="48.62871" lon="-2.32067">
        <ele>37.8</ele>
        <time>2013-09-26T07:34:41Z</time>
      </trkpt>
      <trkpt lat="48.62874" lon="-2.32055">
        <ele>39.6</ele>
        <time>2013-09-26T07:34:48Z</time>
      </trkpt>
      <trkpt lat="48.62877" lon="-2.32044">
        <ele>40.1</ele>
        <time>2013-09-26T07:34:55Z</time>
      </trkpt>
      <trkpt lat="48.62878" lon="-2.32043">
        <ele>40.2</ele>
        <time>2013-09-26T07:34:56Z</time>
      </trkpt>
      <trkpt lat="48.62892" lon="-2.32038">
        <ele>41.7</ele>
        <time>2013-09-26T07:35:08Z</time>
      </trkpt>
      <trkpt lat="48.629" lon="-2.32039">
        <ele>42.5</ele>
        <time>2013-09-26T07:35:13Z</time>
      </trkpt>
      <trkpt lat="48.62908" lon="-2.32042">
        <ele>43.8</ele>
        <time>2013-09-26T07:35:18Z</time>
      </trkpt>
      <trkpt lat="48.62916" lon="-2.32047">
        <ele>44.3</ele>
        <time>2013-09-26T07:35:23Z</time>
      </trkpt>
      <trkpt lat="48.62923" lon="-2.32052">
        <ele>43.6</ele>
        <time>2013-09-26T07:35:28Z</time>
      </trkpt>
      <trkpt lat="48.6293" lon="-2.32056">
        <ele>43.5</ele>
        <time>2013-09-26T07:35:33Z</time>
      </trkpt>
      <trkpt lat="48.62938" lon="-2.3206">
        <ele>44.3</ele>
        <time>2013-09-26T07:35:39Z</time>
      </trkpt>
      <trkpt lat="48.62945" lon="-2.32064">
        <ele>45.1</ele>
        <time>2013-09-26T07:35:45Z</time>
      </trkpt>
      <trkpt lat="48.62953" lon="-2.32068">
        <ele>45.6</ele>
        <time>2013-09-26T07:35:51Z</time>
      </trkpt>
      <trkpt lat="48.62961" lon="-2.32073">
        <ele>45.8</ele>
        <time>2013-09-26T07:35:57Z</time>
      </trkpt>
      <trkpt lat="48.62962" lon="-2.32074">
        <ele>46.1</ele>
        <time>2013-09-26T07:35:58Z</time>
      </trkpt>
      <trkpt lat="48.62974" lon="-2.32088">
        <ele>45.7</ele>
        <time>2013-09-26T07:36:10Z</time>
      </trkpt>
      <trkpt lat="48.62979" lon="-2.32097">
        <ele>47.2</ele>
        <time>2013-09-26T07:36:16Z</time>
      </trkpt>
      <trkpt lat="48.62983" lon="-2.3211">
        <ele>45.9</ele>
        <time>2013-09-26T07:36:22Z</time>
      </trkpt>
      <trkpt lat="48.62987" lon="-2.3212">
        <ele>46.9</ele>
        <time>2013-09-26T07:36:28Z</time>
      </trkpt>
      <trkpt lat="48.62992" lon="-2.32131">
        <ele>46</ele>
        <time>2013-09-26T07:36:34Z</time>
      </trkpt>
      <trkpt lat="48.62995" lon="-2.32143">
        <ele>45.2</ele>
        <time>2013-09-26T07:36:40Z</time>
      </trkpt>
      <trkpt lat="48.63" lon="-2.32153">
        <ele>47.3</ele>
        <time>2013-09-26T07:36:46Z</time>
      </trkpt>
      <trkpt lat="48.63007" lon="-2.32161">
        <ele>47</ele>
        <time>2013-09-26T07:36:52Z</time>
      </trkpt>
      <trkpt lat="48.63013" lon="-2.3217">
        <ele>48.6</ele>
        <time>2013-09-26T07:36:58Z</time>
      </trkpt>
      <trkpt lat="48.63014" lon="-2.32171">
        <ele>48.8</ele>
        <time>2013-09-26T07:36:59Z</time>
      </trkpt>
      <trkpt lat="48.63027" lon="-2.32185">
        <ele>48</ele>
        <time>2013-09-26T07:37:10Z</time>
      </trkpt>
      <trkpt lat="48.63033" lon="-2.32193">
        <ele>48.5</ele>
        <time>2013-09-26T07:37:16Z</time>
      </trkpt>
      <trkpt lat="48.6304" lon="-2.322">
        <ele>48.2</ele>
        <time>2013-09-26T07:37:22Z</time>
      </trkpt>
      <trkpt lat="48.63047" lon="-2.32208">
        <ele>48.5</ele>
        <time>2013-09-26T07:37:29Z</time>
      </trkpt>
      <trkpt lat="48.63053" lon="-2.32215">
        <ele>47.4</ele>
        <time>2013-09-26T07:37:36Z</time>
      </trkpt>
      <trkpt lat="48.6306" lon="-2.32222">
        <ele>48.1</ele>
        <time>2013-09-26T07:37:42Z</time>
      </trkpt>
      <trkpt lat="48.63067" lon="-2.32228">
        <ele>48.3</ele>
        <time>2013-09-26T07:37:48Z</time>
      </trkpt>
      <trkpt lat="48.63075" lon="-2.32232">
        <ele>48.9</ele>
        <time>2013-09-26T07:37:54Z</time>
      </trkpt>
      <trkpt lat="48.63083" lon="-2.32234">
        <ele>47</ele>
        <time>2013-09-26T07:38:00Z</time>
      </trkpt>
      <trkpt lat="48.63084" lon="-2.32235">
        <ele>47.2</ele>
        <time>2013-09-26T07:38:01Z</time>
      </trkpt>
      <trkpt lat="48.63099" lon="-2.32234">
        <ele>49.1</ele>
        <time>2013-09-26T07:38:12Z</time>
      </trkpt>
      <trkpt lat="48.63107" lon="-2.3223">
        <ele>48.8</ele>
        <time>2013-09-26T07:38:17Z</time>
      </trkpt>
      <trkpt lat="48.63114" lon="-2.32225">
        <ele>47.6</ele>
        <time>2013-09-26T07:38:22Z</time>
      </trkpt>
      <trkpt lat="48.63121" lon="-2.32218">
        <ele>49</ele>
        <time>2013-09-26T07:38:28Z</time>
      </trkpt>
      <trkpt lat="48.63128" lon="-2.32212">
        <ele>48.6</ele>
        <time>2013-09-26T07:38:35Z</time>
      </trkpt>
      <trkpt lat="48.63136" lon="-2.32205">
        <ele>50.4</ele>
        <time>2013-09-26T07:38:42Z</time>
      </trkpt>
      <trkpt lat="48.63142" lon="-2.32196">
        <ele>51.4</ele>
        <time>2013-09-26T07:38:51Z</time>
      </trkpt>
      <trkpt lat="48.63145" lon="-2.32183">
        <ele>52.6</ele>
        <time>2013-09-26T07:39:03Z</time>
      </trkpt>
      <trkpt lat="48.63145" lon="-2.32182">
        <ele>52.7</ele>
        <time>2013-09-26T07:39:04Z</time>
      </trkpt>
      <trkpt lat="48.63158" lon="-2.32168">
        <ele>55</ele>
        <time>2013-09-26T07:39:21Z</time>
      </trkpt>
      <trkpt lat="48.63163" lon="-2.32159">
        <ele>56.7</ele>
        <time>2013-09-26T07:39:28Z</time>
      </trkpt>
      <trkpt lat="48.6317" lon="-2.3215">
        <ele>57.5</ele>
        <time>2013-09-26T07:39:33Z</time>
      </trkpt>
      <trkpt lat="48.63176" lon="-2.32141">
        <ele>56.1</ele>
        <time>2013-09-26T07:39:40Z</time>
      </trkpt>
      <trkpt lat="48.63185" lon="-2.32137">
        <ele>58.4</ele>
        <time>2013-09-26T07:39:51Z</time>
      </trkpt>
      <trkpt lat="48.63186" lon="-2.3215">
        <ele>58.7</ele>
        <time>2013-09-26T07:41:08Z</time>
      </trkpt>
      <trkpt lat="48.63186" lon="-2.3215">
        <ele>58.9</ele>
        <time>2013-09-26T07:41:09Z</time>
      </trkpt>
      <trkpt lat="48.63179" lon="-2.32142">
        <ele>62.8</ele>
        <time>2013-09-26T07:46:27Z</time>
      </trkpt>
      <trkpt lat="48.63178" lon="-2.32142">
        <ele>63.4</ele>
        <time>2013-09-26T07:46:28Z</time>
      </trkpt>
      <trkpt lat="48.63162" lon="-2.3214">
        <ele>65.8</ele>
        <time>2013-09-26T07:46:45Z</time>
      </trkpt>
      <trkpt lat="48.63154" lon="-2.32138">
        <ele>66.8</ele>
        <time>2013-09-26T07:46:52Z</time>
      </trkpt>
      <trkpt lat="48.63145" lon="-2.32135">
        <ele>67.4</ele>
        <time>2013-09-26T07:46:59Z</time>
      </trkpt>
      <trkpt lat="48.63137" lon="-2.32131">
        <ele>68.2</ele>
        <time>2013-09-26T07:47:05Z</time>
      </trkpt>
      <trkpt lat="48.63129" lon="-2.3213">
        <ele>67.9</ele>
        <time>2013-09-26T07:47:10Z</time>
      </trkpt>
      <trkpt lat="48.6312" lon="-2.32127">
        <ele>68.8</ele>
        <time>2013-09-26T07:47:15Z</time>
      </trkpt>
      <trkpt lat="48.63113" lon="-2.32119">
        <ele>68</ele>
        <time>2013-09-26T07:47:22Z</time>
      </trkpt>
      <trkpt lat="48.63108" lon="-2.32111">
        <ele>68.5</ele>
        <time>2013-09-26T07:47:28Z</time>
      </trkpt>
      <trkpt lat="48.63107" lon="-2.32109">
        <ele>68.7</ele>
        <time>2013-09-26T07:47:29Z</time>
      </trkpt>
      <trkpt lat="48.63101" lon="-2.32089">
        <ele>70.4</ele>
        <time>2013-09-26T07:47:40Z</time>
      </trkpt>
      <trkpt lat="48.631" lon="-2.32076">
        <ele>70.5</ele>
        <time>2013-09-26T07:47:47Z</time>
      </trkpt>
      <trkpt lat="48.63102" lon="-2.32063">
        <ele>70.3</ele>
        <time>2013-09-26T07:47:52Z</time>
      </trkpt>
      <trkpt lat="48.63105" lon="-2.32052">
        <ele>70.5</ele>
        <time>2013-09-26T07:47:57Z</time>
      </trkpt>
      <trkpt lat="48.63109" lon="-2.3204">
        <ele>70.8</ele>
        <time>2013-09-26T07:48:03Z</time>
      </trkpt>
      <trkpt lat="48.63112" lon="-2.32028">
        <ele>71.2</ele>
        <time>2013-09-26T07:48:09Z</time>
      </trkpt>
      <trkpt lat="48.63117" lon="-2.32018">
        <ele>54.8</ele>
        <time>2013-09-26T07:48:16Z</time>
      </trkpt>
      <trkpt lat="48.63121" lon="-2.32007">
        <ele>48.6</ele>
        <time>2013-09-26T07:48:23Z</time>
      </trkpt>
      <trkpt lat="48.63123" lon="-2.31995">
        <ele>48.4</ele>
        <time>2013-09-26T07:48:30Z</time>
      </trkpt>
      <trkpt lat="48.63124" lon="-2.31993">
        <ele>48.7</ele>
        <time>2013-09-26T07:48:31Z</time>
      </trkpt>
      <trkpt lat="48.63128" lon="-2.31972">
        <ele>48.4</ele>
        <time>2013-09-26T07:48:40Z</time>
      </trkpt>
      <trkpt lat="48.63131" lon="-2.31959">
        <ele>48.4</ele>
        <time>2013-09-26T07:48:46Z</time>
      </trkpt>
      <trkpt lat="48.63135" lon="-2.31947">
        <ele>49</ele>
        <time>2013-09-26T07:48:52Z</time>
      </trkpt>
      <trkpt lat="48.63141" lon="-2.31939">
        <ele>48.2</ele>
        <time>2013-09-26T07:48:58Z</time>
      </trkpt>
      <trkpt lat="48.63146" lon="-2.3193">
        <ele>47.6</ele>
        <time>2013-09-26T07:49:04Z</time>
      </trkpt>
      <trkpt lat="48.6315" lon="-2.31919">
        <ele>47.9</ele>
        <time>2013-09-26T07:49:10Z</time>
      </trkpt>
      <trkpt lat="48.63154" lon="-2.31908">
        <ele>48</ele>
        <time>2013-09-26T07:49:16Z</time>
      </trkpt>
      <trkpt lat="48.63159" lon="-2.31897">
        <ele>48</ele>
        <time>2013-09-26T07:49:22Z</time>
      </trkpt>
      <trkpt lat="48.63163" lon="-2.31886">
        <ele>47.9</ele>
        <time>2013-09-26T07:49:28Z</time>
      </trkpt>
      <trkpt lat="48.63167" lon="-2.31874">
        <ele>47.9</ele>
        <time>2013-09-26T07:49:34Z</time>
      </trkpt>
      <trkpt lat="48.63167" lon="-2.31872">
        <ele>47.9</ele>
        <time>2013-09-26T07:49:35Z</time>
      </trkpt>
      <trkpt lat="48.63172" lon="-2.31849">
        <ele>48.3</ele>
        <time>2013-09-26T07:49:46Z</time>
      </trkpt>
      <trkpt lat="48.63174" lon="-2.31837">
        <ele>48.4</ele>
        <time>2013-09-26T07:49:52Z</time>
      </trkpt>
      <trkpt lat="48.63178" lon="-2.31825">
        <ele>48.2</ele>
        <time>2013-09-26T07:49:59Z</time>
      </trkpt>
      <trkpt lat="48.63185" lon="-2.31818">
        <ele>48.7</ele>
        <time>2013-09-26T07:50:06Z</time>
      </trkpt>
      <trkpt lat="48.63189" lon="-2.31808">
        <ele>49.2</ele>
        <time>2013-09-26T07:50:12Z</time>
      </trkpt>
      <trkpt lat="48.63196" lon="-2.31801">
        <ele>48.8</ele>
        <time>2013-09-26T07:50:19Z</time>
      </trkpt>
      <trkpt lat="48.63202" lon="-2.31793">
        <ele>48.5</ele>
        <time>2013-09-26T07:50:26Z</time>
      </trkpt>
      <trkpt lat="48.63209" lon="-2.31786">
        <ele>50.1</ele>
        <time>2013-09-26T07:50:33Z</time>
      </trkpt>
      <trkpt lat="48.63216" lon="-2.3178">
        <ele>50.4</ele>
        <time>2013-09-26T07:50:39Z</time>
      </trkpt>
      <trkpt lat="48.63218" lon="-2.31779">
        <ele>50.8</ele>
        <time>2013-09-26T07:50:40Z</time>
      </trkpt>
      <trkpt lat="48.6323" lon="-2.31765">
        <ele>52.7</ele>
        <time>2013-09-26T07:50:53Z</time>
      </trkpt>
      <trkpt lat="48.63233" lon="-2.31754">
        <ele>53.4</ele>
        <time>2013-09-26T07:50:59Z</time>
      </trkpt>
      <trkpt lat="48.63237" lon="-2.31743">
        <ele>52.7</ele>
        <time>2013-09-26T07:51:05Z</time>
      </trkpt>
      <trkpt lat="48.63243" lon="-2.31735">
        <ele>52.9</ele>
        <time>2013-09-26T07:51:12Z</time>
      </trkpt>
      <trkpt lat="48.63249" lon="-2.31725">
        <ele>53.4</ele>
        <time>2013-09-26T07:51:19Z</time>
      </trkpt>
      <trkpt lat="48.63257" lon="-2.31722">
        <ele>55</ele>
        <time>2013-09-26T07:51:26Z</time>
      </trkpt>
      <trkpt lat="48.63264" lon="-2.31714">
        <ele>55.7</ele>
        <time>2013-09-26T07:51:34Z</time>
      </trkpt>
      <trkpt lat="48.6327" lon="-2.31704">
        <ele>56.3</ele>
        <time>2013-09-26T07:51:42Z</time>
      </trkpt>
      <trkpt lat="48.63271" lon="-2.31702">
        <ele>56.5</ele>
        <time>2013-09-26T07:51:43Z</time>
      </trkpt>
      <trkpt lat="48.63273" lon="-2.3168">
        <ele>57</ele>
        <time>2013-09-26T07:51:55Z</time>
      </trkpt>
      <trkpt lat="48.63276" lon="-2.31668">
        <ele>57.1</ele>
        <time>2013-09-26T07:52:01Z</time>
      </trkpt>
      <trkpt lat="48.63281" lon="-2.31657">
        <ele>57.1</ele>
        <time>2013-09-26T07:52:08Z</time>
      </trkpt>
      <trkpt lat="48.63284" lon="-2.31645">
        <ele>57.6</ele>
        <time>2013-09-26T07:52:14Z</time>
      </trkpt>
      <trkpt lat="48.63285" lon="-2.31632">
        <ele>57.7</ele>
        <time>2013-09-26T07:52:21Z</time>
      </trkpt>
      <trkpt lat="48.63289" lon="-2.3162">
        <ele>58.7</ele>
        <time>2013-09-26T07:52:28Z</time>
      </trkpt>
      <trkpt lat="48.63293" lon="-2.31609">
        <ele>60.2</ele>
        <time>2013-09-26T07:52:35Z</time>
      </trkpt>
      <trkpt lat="48.63294" lon="-2.31597">
        <ele>60.2</ele>
        <time>2013-09-26T07:52:41Z</time>
      </trkpt>
      <trkpt lat="48.63297" lon="-2.31585">
        <ele>58.5</ele>
        <time>2013-09-26T07:52:47Z</time>
      </trkpt>
      <trkpt lat="48.63298" lon="-2.31583">
        <ele>58.7</ele>
        <time>2013-09-26T07:52:48Z</time>
      </trkpt>
      <trkpt lat="48.63309" lon="-2.31567">
        <ele>59.7</ele>
        <time>2013-09-26T07:52:59Z</time>
      </trkpt>
      <trkpt lat="48.63316" lon="-2.31564">
        <ele>59.7</ele>
        <time>2013-09-26T07:53:05Z</time>
      </trkpt>
      <trkpt lat="48.63323" lon="-2.3156">
        <ele>59.8</ele>
        <time>2013-09-26T07:53:11Z</time>
      </trkpt>
      <trkpt lat="48.63331" lon="-2.31553">
        <ele>60.5</ele>
        <time>2013-09-26T07:53:18Z</time>
      </trkpt>
      <trkpt lat="48.63338" lon="-2.31546">
        <ele>59.6</ele>
        <time>2013-09-26T07:53:25Z</time>
      </trkpt>
      <trkpt lat="48.63345" lon="-2.31539">
        <ele>61</ele>
        <time>2013-09-26T07:53:33Z</time>
      </trkpt>
      <trkpt lat="48.63353" lon="-2.31532">
        <ele>61.9</ele>
        <time>2013-09-26T07:53:41Z</time>
      </trkpt>
      <trkpt lat="48.63356" lon="-2.31519">
        <ele>62.1</ele>
        <time>2013-09-26T07:53:50Z</time>
      </trkpt>
      <trkpt lat="48.63356" lon="-2.31517">
        <ele>62.1</ele>
        <time>2013-09-26T07:53:51Z</time>
      </trkpt>
      <trkpt lat="48.63362" lon="-2.31497">
        <ele>61.3</ele>
        <time>2013-09-26T07:54:02Z</time>
      </trkpt>
      <trkpt lat="48.63369" lon="-2.31489">
        <ele>62.4</ele>
        <time>2013-09-26T07:54:09Z</time>
      </trkpt>
      <trkpt lat="48.63376" lon="-2.31482">
        <ele>63.3</ele>
        <time>2013-09-26T07:54:17Z</time>
      </trkpt>
      <trkpt lat="48.63384" lon="-2.31479">
        <ele>63.1</ele>
        <time>2013-09-26T07:54:24Z</time>
      </trkpt>
      <trkpt lat="48.63392" lon="-2.31474">
        <ele>64.2</ele>
        <time>2013-09-26T07:54:32Z</time>
      </trkpt>
      <trkpt lat="48.634" lon="-2.31468">
        <ele>64.5</ele>
        <time>2013-09-26T07:54:39Z</time>
      </trkpt>
      <trkpt lat="48.63407" lon="-2.31464">
        <ele>64.9</ele>
        <time>2013-09-26T07:54:45Z</time>
      </trkpt>
      <trkpt lat="48.63416" lon="-2.31462">
        <ele>65.8</ele>
        <time>2013-09-26T07:54:52Z</time>
      </trkpt>
      <trkpt lat="48.63417" lon="-2.31462">
        <ele>65.9</ele>
        <time>2013-09-26T07:54:53Z</time>
      </trkpt>
      <trkpt lat="48.63426" lon="-2.31444">
        <ele>66.5</ele>
        <time>2013-09-26T07:55:05Z</time>
      </trkpt>
      <trkpt lat="48.63429" lon="-2.31433">
        <ele>67</ele>
        <time>2013-09-26T07:55:10Z</time>
      </trkpt>
      <trkpt lat="48.63433" lon="-2.31421">
        <ele>65.2</ele>
        <time>2013-09-26T07:55:16Z</time>
      </trkpt>
      <trkpt lat="48.63437" lon="-2.31411">
        <ele>65.4</ele>
        <time>2013-09-26T07:55:22Z</time>
      </trkpt>
      <trkpt lat="48.63442" lon="-2.31402">
        <ele>65.7</ele>
        <time>2013-09-26T07:55:28Z</time>
      </trkpt>
      <trkpt lat="48.63447" lon="-2.31391">
        <ele>66.1</ele>
        <time>2013-09-26T07:55:35Z</time>
      </trkpt>
      <trkpt lat="48.63452" lon="-2.3138">
        <ele>66.9</ele>
        <time>2013-09-26T07:55:40Z</time>
      </trkpt>
      <trkpt lat="48.63453" lon="-2.31369">
        <ele>65.2</ele>
        <time>2013-09-26T07:55:46Z</time>
      </trkpt>
      <trkpt lat="48.63451" lon="-2.31356">
        <ele>64.9</ele>
        <time>2013-09-26T07:55:52Z</time>
      </trkpt>
      <trkpt lat="48.63454" lon="-2.31344">
        <ele>64.3</ele>
        <time>2013-09-26T07:55:58Z</time>
      </trkpt>
      <trkpt lat="48.63455" lon="-2.31342">
        <ele>64.4</ele>
        <time>2013-09-26T07:55:59Z</time>
      </trkpt>
      <trkpt lat="48.63466" lon="-2.31329">
        <ele>63.8</ele>
        <time>2013-09-26T07:56:10Z</time>
      </trkpt>
      <trkpt lat="48.63475" lon="-2.31332">
        <ele>63.6</ele>
        <time>2013-09-26T07:56:17Z</time>
      </trkpt>
      <trkpt lat="48.63484" lon="-2.31335">
        <ele>63.1</ele>
        <time>2013-09-26T07:56:24Z</time>
      </trkpt>
      <trkpt lat="48.63492" lon="-2.31335">
        <ele>64.1</ele>
        <time>2013-09-26T07:56:31Z</time>
      </trkpt>
      <trkpt lat="48.635" lon="-2.31334">
        <ele>62.8</ele>
        <time>2013-09-26T07:56:38Z</time>
      </trkpt>
      <trkpt lat="48.63508" lon="-2.31331">
        <ele>63.7</ele>
        <time>2013-09-26T07:56:46Z</time>
      </trkpt>
      <trkpt lat="48.63517" lon="-2.31328">
        <ele>62.1</ele>
        <time>2013-09-26T07:56:54Z</time>
      </trkpt>
      <trkpt lat="48.63525" lon="-2.31325">
        <ele>61.4</ele>
        <time>2013-09-26T07:57:01Z</time>
      </trkpt>
      <trkpt lat="48.63526" lon="-2.31324">
        <ele>61.8</ele>
        <time>2013-09-26T07:57:02Z</time>
      </trkpt>
      <trkpt lat="48.63539" lon="-2.31316">
        <ele>61.1</ele>
        <time>2013-09-26T07:57:12Z</time>
      </trkpt>
      <trkpt lat="48.63544" lon="-2.31307">
        <ele>61.5</ele>
        <time>2013-09-26T07:57:16Z</time>
      </trkpt>
      <trkpt lat="48.63552" lon="-2.313">
        <ele>62.3</ele>
        <time>2013-09-26T07:57:21Z</time>
      </trkpt>
      <trkpt lat="48.6356" lon="-2.31296">
        <ele>61.2</ele>
        <time>2013-09-26T07:57:27Z</time>
      </trkpt>
      <trkpt lat="48.63568" lon="-2.31296">
        <ele>61.2</ele>
        <time>2013-09-26T07:57:32Z</time>
      </trkpt>
      <trkpt lat="48.63576" lon="-2.31295">
        <ele>62</ele>
        <time>2013-09-26T07:57:38Z</time>
      </trkpt>
      <trkpt lat="48.63584" lon="-2.31292">
        <ele>61.4</ele>
        <time>2013-09-26T07:57:44Z</time>
      </trkpt>
      <trkpt lat="48.63592" lon="-2.31287">
        <ele>62</ele>
        <time>2013-09-26T07:57:51Z</time>
      </trkpt>
      <trkpt lat="48.63597" lon="-2.31278">
        <ele>61.1</ele>
        <time>2013-09-26T07:57:57Z</time>
      </trkpt>
      <trkpt lat="48.63604" lon="-2.3127">
        <ele>59.6</ele>
        <time>2013-09-26T07:58:03Z</time>
      </trkpt>
      <trkpt lat="48.63605" lon="-2.3127">
        <ele>59.4</ele>
        <time>2013-09-26T07:58:04Z</time>
      </trkpt>
      <trkpt lat="48.63618" lon="-2.31265">
        <ele>59.7</ele>
        <time>2013-09-26T07:58:13Z</time>
      </trkpt>
      <trkpt lat="48.63626" lon="-2.31259">
        <ele>60.3</ele>
        <time>2013-09-26T07:58:19Z</time>
      </trkpt>
      <trkpt lat="48.63633" lon="-2.31254">
        <ele>59.4</ele>
        <time>2013-09-26T07:58:24Z</time>
      </trkpt>
      <trkpt lat="48.6364" lon="-2.31247">
        <ele>58.6</ele>
        <time>2013-09-26T07:58:30Z</time>
      </trkpt>
      <trkpt lat="48.63647" lon="-2.31241">
        <ele>59</ele>
        <time>2013-09-26T07:58:36Z</time>
      </trkpt>
      <trkpt lat="48.63654" lon="-2.31235">
        <ele>58.8</ele>
        <time>2013-09-26T07:58:41Z</time>
      </trkpt>
      <trkpt lat="48.63661" lon="-2.31229">
        <ele>58.1</ele>
        <time>2013-09-26T07:58:45Z</time>
      </trkpt>
      <trkpt lat="48.63669" lon="-2.31224">
        <ele>57.9</ele>
        <time>2013-09-26T07:58:49Z</time>
      </trkpt>
      <trkpt lat="48.63676" lon="-2.3122">
        <ele>58.2</ele>
        <time>2013-09-26T07:58:54Z</time>
      </trkpt>
      <trkpt lat="48.63683" lon="-2.31214">
        <ele>58</ele>
        <time>2013-09-26T07:59:00Z</time>
      </trkpt>
      <trkpt lat="48.63689" lon="-2.31206">
        <ele>57.7</ele>
        <time>2013-09-26T07:59:05Z</time>
      </trkpt>
      <trkpt lat="48.6369" lon="-2.31204">
        <ele>57.6</ele>
        <time>2013-09-26T07:59:06Z</time>
      </trkpt>
      <trkpt lat="48.63698" lon="-2.31187">
        <ele>57</ele>
        <time>2013-09-26T07:59:15Z</time>
      </trkpt>
      <trkpt lat="48.63704" lon="-2.31181">
        <ele>56.7</ele>
        <time>2013-09-26T07:59:20Z</time>
      </trkpt>
      <trkpt lat="48.63711" lon="-2.31172">
        <ele>56.6</ele>
        <time>2013-09-26T07:59:26Z</time>
      </trkpt>
      <trkpt lat="48.63717" lon="-2.31162">
        <ele>55.8</ele>
        <time>2013-09-26T07:59:32Z</time>
      </trkpt>
      <trkpt lat="48.6372" lon="-2.3115">
        <ele>56</ele>
        <time>2013-09-26T07:59:38Z</time>
      </trkpt>
      <trkpt lat="48.63724" lon="-2.31138">
        <ele>54.9</ele>
        <time>2013-09-26T07:59:44Z</time>
      </trkpt>
      <trkpt lat="48.63728" lon="-2.31128">
        <ele>54.2</ele>
        <time>2013-09-26T07:59:49Z</time>
      </trkpt>
      <trkpt lat="48.63731" lon="-2.31118">
        <ele>53.1</ele>
        <time>2013-09-26T07:59:54Z</time>
      </trkpt>
      <trkpt lat="48.63736" lon="-2.31106">
        <ele>53.9</ele>
        <time>2013-09-26T08:00:00Z</time>
      </trkpt>
      <trkpt lat="48.63742" lon="-2.31097">
        <ele>53.2</ele>
        <time>2013-09-26T08:00:06Z</time>
      </trkpt>
      <trkpt lat="48.63743" lon="-2.31096">
        <ele>53.1</ele>
        <time>2013-09-26T08:00:07Z</time>
      </trkpt>
      <trkpt lat="48.63754" lon="-2.31078">
        <ele>50.3</ele>
        <time>2013-09-26T08:00:19Z</time>
      </trkpt>
      <trkpt lat="48.63759" lon="-2.31068">
        <ele>49.7</ele>
        <time>2013-09-26T08:00:26Z</time>
      </trkpt>
      <trkpt lat="48.63765" lon="-2.31058">
        <ele>48.2</ele>
        <time>2013-09-26T08:00:34Z</time>
      </trkpt>
      <trkpt lat="48.6377" lon="-2.31049">
        <ele>47.3</ele>
        <time>2013-09-26T08:00:40Z</time>
      </trkpt>
      <trkpt lat="48.63775" lon="-2.3104">
        <ele>46</ele>
        <time>2013-09-26T08:00:45Z</time>
      </trkpt>
      <trkpt lat="48.6378" lon="-2.31031">
        <ele>45.7</ele>
        <time>2013-09-26T08:00:51Z</time>
      </trkpt>
      <trkpt lat="48.63788" lon="-2.31027">
        <ele>46.8</ele>
        <time>2013-09-26T08:01:02Z</time>
      </trkpt>
      <trkpt lat="48.63797" lon="-2.31023">
        <ele>48.1</ele>
        <time>2013-09-26T08:01:10Z</time>
      </trkpt>
      <trkpt lat="48.63798" lon="-2.31023">
        <ele>47.8</ele>
        <time>2013-09-26T08:01:11Z</time>
      </trkpt>
      <trkpt lat="48.63812" lon="-2.31012">
        <ele>50.3</ele>
        <time>2013-09-26T08:01:26Z</time>
      </trkpt>
      <trkpt lat="48.6382" lon="-2.31006">
        <ele>51.9</ele>
        <time>2013-09-26T08:01:39Z</time>
      </trkpt>
      <trkpt lat="48.63829" lon="-2.31008">
        <ele>52.1</ele>
        <time>2013-09-26T08:02:16Z</time>
      </trkpt>
      <trkpt lat="48.63829" lon="-2.31009">
        <ele>52.3</ele>
        <time>2013-09-26T08:02:17Z</time>
      </trkpt>
      <trkpt lat="48.63838" lon="-2.31028">
        <ele>53.2</ele>
        <time>2013-09-26T08:02:30Z</time>
      </trkpt>
      <trkpt lat="48.63842" lon="-2.31038">
        <ele>54.2</ele>
        <time>2013-09-26T08:02:37Z</time>
      </trkpt>
      <trkpt lat="48.63846" lon="-2.31049">
        <ele>56.4</ele>
        <time>2013-09-26T08:02:43Z</time>
      </trkpt>
      <trkpt lat="48.63847" lon="-2.3106">
        <ele>55.9</ele>
        <time>2013-09-26T08:02:48Z</time>
      </trkpt>
      <trkpt lat="48.63849" lon="-2.31073">
        <ele>56</ele>
        <time>2013-09-26T08:02:55Z</time>
      </trkpt>
      <trkpt lat="48.63854" lon="-2.31085">
        <ele>57</ele>
        <time>2013-09-26T08:03:02Z</time>
      </trkpt>
      <trkpt lat="48.63859" lon="-2.31093">
        <ele>57.7</ele>
        <time>2013-09-26T08:03:07Z</time>
      </trkpt>
      <trkpt lat="48.63865" lon="-2.31102">
        <ele>56</ele>
        <time>2013-09-26T08:03:13Z</time>
      </trkpt>
      <trkpt lat="48.63873" lon="-2.31107">
        <ele>56.4</ele>
        <time>2013-09-26T08:03:20Z</time>
      </trkpt>
      <trkpt lat="48.63874" lon="-2.31108">
        <ele>56.4</ele>
        <time>2013-09-26T08:03:21Z</time>
      </trkpt>
      <trkpt lat="48.63875" lon="-2.31127">
        <ele>54.1</ele>
        <time>2013-09-26T08:03:37Z</time>
      </trkpt>
      <trkpt lat="48.63869" lon="-2.31137">
        <ele>53.7</ele>
        <time>2013-09-26T08:03:44Z</time>
      </trkpt>
      <trkpt lat="48.63864" lon="-2.31148">
        <ele>53.8</ele>
        <time>2013-09-26T08:03:51Z</time>
      </trkpt>
      <trkpt lat="48.6386" lon="-2.31157">
        <ele>53.2</ele>
        <time>2013-09-26T08:03:55Z</time>
      </trkpt>
      <trkpt lat="48.63855" lon="-2.31168">
        <ele>51.5</ele>
        <time>2013-09-26T08:04:00Z</time>
      </trkpt>
      <trkpt lat="48.6385" lon="-2.31179">
        <ele>52.4</ele>
        <time>2013-09-26T08:04:06Z</time>
      </trkpt>
      <trkpt lat="48.63846" lon="-2.3119">
        <ele>52.1</ele>
        <time>2013-09-26T08:04:11Z</time>
      </trkpt>
      <trkpt lat="48.63842" lon="-2.312">
        <ele>52.1</ele>
        <time>2013-09-26T08:04:16Z</time>
      </trkpt>
      <trkpt lat="48.63838" lon="-2.31211">
        <ele>51.1</ele>
        <time>2013-09-26T08:04:22Z</time>
      </trkpt>
      <trkpt lat="48.63837" lon="-2.31213">
        <ele>51.2</ele>
        <time>2013-09-26T08:04:23Z</time>
      </trkpt>
      <trkpt lat="48.63832" lon="-2.31235">
        <ele>49.5</ele>
        <time>2013-09-26T08:04:32Z</time>
      </trkpt>
      <trkpt lat="48.63828" lon="-2.31246">
        <ele>47.7</ele>
        <time>2013-09-26T08:04:39Z</time>
      </trkpt>
      <trkpt lat="48.63823" lon="-2.31257">
        <ele>48.2</ele>
        <time>2013-09-26T08:04:46Z</time>
      </trkpt>
      <trkpt lat="48.63818" lon="-2.31267">
        <ele>46.7</ele>
        <time>2013-09-26T08:04:53Z</time>
      </trkpt>
      <trkpt lat="48.63813" lon="-2.31277">
        <ele>44.4</ele>
        <time>2013-09-26T08:04:58Z</time>
      </trkpt>
      <trkpt lat="48.63808" lon="-2.31286">
        <ele>45.4</ele>
        <time>2013-09-26T08:05:03Z</time>
      </trkpt>
      <trkpt lat="48.63803" lon="-2.31295">
        <ele>46</ele>
        <time>2013-09-26T08:05:08Z</time>
      </trkpt>
      <trkpt lat="48.63797" lon="-2.31304">
        <ele>46.3</ele>
        <time>2013-09-26T08:05:14Z</time>
      </trkpt>
      <trkpt lat="48.63804" lon="-2.31312">
        <ele>41.1</ele>
        <time>2013-09-26T08:05:34Z</time>
      </trkpt>
      <trkpt lat="48.63805" lon="-2.31311">
        <ele>40.3</ele>
        <time>2013-09-26T08:05:35Z</time>
      </trkpt>
      <trkpt lat="48.63819" lon="-2.313">
        <ele>42.4</ele>
        <time>2013-09-26T08:05:46Z</time>
      </trkpt>
      <trkpt lat="48.63825" lon="-2.31292">
        <ele>40.1</ele>
        <time>2013-09-26T08:05:52Z</time>
      </trkpt>
      <trkpt lat="48.6383" lon="-2.31283">
        <ele>40</ele>
        <time>2013-09-26T08:05:58Z</time>
      </trkpt>
      <trkpt lat="48.63834" lon="-2.31271">
        <ele>38.4</ele>
        <time>2013-09-26T08:06:04Z</time>
      </trkpt>
      <trkpt lat="48.6384" lon="-2.31262">
        <ele>37.2</ele>
        <time>2013-09-26T08:06:11Z</time>
      </trkpt>
      <trkpt lat="48.63847" lon="-2.31254">
        <ele>36.4</ele>
        <time>2013-09-26T08:06:16Z</time>
      </trkpt>
      <trkpt lat="48.63853" lon="-2.31247">
        <ele>35.9</ele>
        <time>2013-09-26T08:06:20Z</time>
      </trkpt>
      <trkpt lat="48.63861" lon="-2.31241">
        <ele>34.8</ele>
        <time>2013-09-26T08:06:25Z</time>
      </trkpt>
      <trkpt lat="48.63867" lon="-2.31234">
        <ele>33.5</ele>
        <time>2013-09-26T08:06:30Z</time>
      </trkpt>
      <trkpt lat="48.63875" lon="-2.31226">
        <ele>33.3</ele>
        <time>2013-09-26T08:06:37Z</time>
      </trkpt>
      <trkpt lat="48.63876" lon="-2.31226">
        <ele>33.4</ele>
        <time>2013-09-26T08:06:38Z</time>
      </trkpt>
      <trkpt lat="48.63887" lon="-2.31213">
        <ele>32</ele>
        <time>2013-09-26T08:06:49Z</time>
      </trkpt>
      <trkpt lat="48.63893" lon="-2.31205">
        <ele>31.4</ele>
        <time>2013-09-26T08:06:53Z</time>
      </trkpt>
      <trkpt lat="48.63899" lon="-2.31196">
        <ele>30.8</ele>
        <time>2013-09-26T08:06:57Z</time>
      </trkpt>
      <trkpt lat="48.63906" lon="-2.31189">
        <ele>29.8</ele>
        <time>2013-09-26T08:07:02Z</time>
      </trkpt>
      <trkpt lat="48.63914" lon="-2.31183">
        <ele>28.4</ele>
        <time>2013-09-26T08:07:09Z</time>
      </trkpt>
      <trkpt lat="48.63923" lon="-2.31183">
        <ele>26.8</ele>
        <time>2013-09-26T08:07:15Z</time>
      </trkpt>
      <trkpt lat="48.63931" lon="-2.31187">
        <ele>26.4</ele>
        <time>2013-09-26T08:07:25Z</time>
      </trkpt>
      <trkpt lat="48.6394" lon="-2.31187">
        <ele>25.8</ele>
        <time>2013-09-26T08:07:32Z</time>
      </trkpt>
      <trkpt lat="48.63949" lon="-2.31189">
        <ele>24.8</ele>
        <time>2013-09-26T08:07:38Z</time>
      </trkpt>
      <trkpt lat="48.6395" lon="-2.3119">
        <ele>24.7</ele>
        <time>2013-09-26T08:07:39Z</time>
      </trkpt>
      <trkpt lat="48.63966" lon="-2.31192">
        <ele>25.6</ele>
        <time>2013-09-26T08:07:51Z</time>
      </trkpt>
      <trkpt lat="48.63973" lon="-2.31186">
        <ele>26.3</ele>
        <time>2013-09-26T08:07:57Z</time>
      </trkpt>
      <trkpt lat="48.63979" lon="-2.31178">
        <ele>26.4</ele>
        <time>2013-09-26T08:08:01Z</time>
      </trkpt>
      <trkpt lat="48.63985" lon="-2.31169">
        <ele>26.5</ele>
        <time>2013-09-26T08:08:07Z</time>
      </trkpt>
      <trkpt lat="48.63993" lon="-2.31165">
        <ele>25.5</ele>
        <time>2013-09-26T08:08:14Z</time>
      </trkpt>
      <trkpt lat="48.63999" lon="-2.31156">
        <ele>24.1</ele>
        <time>2013-09-26T08:08:22Z</time>
      </trkpt>
      <trkpt lat="48.64005" lon="-2.31146">
        <ele>23.5</ele>
        <time>2013-09-26T08:08:28Z</time>
      </trkpt>
      <trkpt lat="48.64009" lon="-2.31136">
        <ele>23.3</ele>
        <time>2013-09-26T08:08:34Z</time>
      </trkpt>
      <trkpt lat="48.64014" lon="-2.31126">
        <ele>22.7</ele>
        <time>2013-09-26T08:08:40Z</time>
      </trkpt>
      <trkpt lat="48.64014" lon="-2.31125">
        <ele>22.5</ele>
        <time>2013-09-26T08:08:41Z</time>
      </trkpt>
      <trkpt lat="48.64024" lon="-2.31107">
        <ele>21.3</ele>
        <time>2013-09-26T08:08:54Z</time>
      </trkpt>
      <trkpt lat="48.6403" lon="-2.31098">
        <ele>20.1</ele>
        <time>2013-09-26T08:09:01Z</time>
      </trkpt>
      <trkpt lat="48.64035" lon="-2.31089">
        <ele>18.3</ele>
        <time>2013-09-26T08:09:08Z</time>
      </trkpt>
      <trkpt lat="48.64043" lon="-2.31081">
        <ele>18.5</ele>
        <time>2013-09-26T08:09:14Z</time>
      </trkpt>
      <trkpt lat="48.64048" lon="-2.31073">
        <ele>17.2</ele>
        <time>2013-09-26T08:09:18Z</time>
      </trkpt>
      <trkpt lat="48.64053" lon="-2.31063">
        <ele>17.4</ele>
        <time>2013-09-26T08:09:22Z</time>
      </trkpt>
      <trkpt lat="48.64059" lon="-2.31053">
        <ele>16.8</ele>
        <time>2013-09-26T08:09:26Z</time>
      </trkpt>
      <trkpt lat="48.64066" lon="-2.31043">
        <ele>16.4</ele>
        <time>2013-09-26T08:09:30Z</time>
      </trkpt>
      <trkpt lat="48.64071" lon="-2.31036">
        <ele>15.3</ele>
        <time>2013-09-26T08:09:34Z</time>
      </trkpt>
      <trkpt lat="48.64077" lon="-2.31027">
        <ele>14.8</ele>
        <time>2013-09-26T08:09:39Z</time>
      </trkpt>
      <trkpt lat="48.64081" lon="-2.31015">
        <ele>13.6</ele>
        <time>2013-09-26T08:09:45Z</time>
      </trkpt>
      <trkpt lat="48.64081" lon="-2.31013">
        <ele>13.4</ele>
        <time>2013-09-26T08:09:46Z</time>
      </trkpt>
      <trkpt lat="48.64085" lon="-2.30991">
        <ele>10.7</ele>
        <time>2013-09-26T08:09:55Z</time>
      </trkpt>
      <trkpt lat="48.6409" lon="-2.30982">
        <ele>10.1</ele>
        <time>2013-09-26T08:09:59Z</time>
      </trkpt>
      <trkpt lat="48.64095" lon="-2.30972">
        <ele>8.5</ele>
        <time>2013-09-26T08:10:04Z</time>
      </trkpt>
      <trkpt lat="48.641" lon="-2.30964">
        <ele>7.7</ele>
        <time>2013-09-26T08:10:08Z</time>
      </trkpt>
      <trkpt lat="48.64107" lon="-2.30956">
        <ele>7</ele>
        <time>2013-09-26T08:10:13Z</time>
      </trkpt>
      <trkpt lat="48.64116" lon="-2.30954">
        <ele>6</ele>
        <time>2013-09-26T08:10:20Z</time>
      </trkpt>
      <trkpt lat="48.64122" lon="-2.30963">
        <ele>6</ele>
        <time>2013-09-26T08:10:43Z</time>
      </trkpt>
      <trkpt lat="48.64125" lon="-2.30975">
        <ele>6.7</ele>
        <time>2013-09-26T08:11:03Z</time>
      </trkpt>
      <trkpt lat="48.64125" lon="-2.30977">
        <ele>6.6</ele>
        <time>2013-09-26T08:11:04Z</time>
      </trkpt>
      <trkpt lat="48.6412" lon="-2.31001">
        <ele>12</ele>
        <time>2013-09-26T08:11:42Z</time>
      </trkpt>
      <trkpt lat="48.64126" lon="-2.31011">
        <ele>14.7</ele>
        <time>2013-09-26T08:11:51Z</time>
      </trkpt>
      <trkpt lat="48.64131" lon="-2.31019">
        <ele>16</ele>
        <time>2013-09-26T08:12:01Z</time>
      </trkpt>
      <trkpt lat="48.64137" lon="-2.31029">
        <ele>17.5</ele>
        <time>2013-09-26T08:12:09Z</time>
      </trkpt>
      <trkpt lat="48.64138" lon="-2.3103">
        <ele>17.6</ele>
        <time>2013-09-26T08:12:10Z</time>
      </trkpt>
      <trkpt lat="48.64153" lon="-2.31038">
        <ele>19.3</ele>
        <time>2013-09-26T08:12:25Z</time>
      </trkpt>
      <trkpt lat="48.64161" lon="-2.31042">
        <ele>20.1</ele>
        <time>2013-09-26T08:12:34Z</time>
      </trkpt>
      <trkpt lat="48.64169" lon="-2.31047">
        <ele>22</ele>
        <time>2013-09-26T08:12:44Z</time>
      </trkpt>
      <trkpt lat="48.64177" lon="-2.31053">
        <ele>24.5</ele>
        <time>2013-09-26T08:12:54Z</time>
      </trkpt>
      <trkpt lat="48.64185" lon="-2.31058">
        <ele>26.2</ele>
        <time>2013-09-26T08:13:04Z</time>
      </trkpt>
      <trkpt lat="48.64192" lon="-2.31064">
        <ele>28.1</ele>
        <time>2013-09-26T08:13:13Z</time>
      </trkpt>
      <trkpt lat="48.64193" lon="-2.31064">
        <ele>28.5</ele>
        <time>2013-09-26T08:13:14Z</time>
      </trkpt>
      <trkpt lat="48.64208" lon="-2.31067">
        <ele>29</ele>
        <time>2013-09-26T08:13:49Z</time>
      </trkpt>
      <trkpt lat="48.64215" lon="-2.31063">
        <ele>28.9</ele>
        <time>2013-09-26T08:13:57Z</time>
      </trkpt>
      <trkpt lat="48.64223" lon="-2.31058">
        <ele>28.9</ele>
        <time>2013-09-26T08:14:03Z</time>
      </trkpt>
      <trkpt lat="48.6423" lon="-2.3105">
        <ele>26.7</ele>
        <time>2013-09-26T08:14:11Z</time>
      </trkpt>
      <trkpt lat="48.64238" lon="-2.31046">
        <ele>25.8</ele>
        <time>2013-09-26T08:14:19Z</time>
      </trkpt>
      <trkpt lat="48.64239" lon="-2.31045">
        <ele>25.5</ele>
        <time>2013-09-26T08:14:20Z</time>
      </trkpt>
      <trkpt lat="48.64253" lon="-2.31035">
        <ele>27.1</ele>
        <time>2013-09-26T08:14:42Z</time>
      </trkpt>
      <trkpt lat="48.64258" lon="-2.31024">
        <ele>26.5</ele>
        <time>2013-09-26T08:14:51Z</time>
      </trkpt>
      <trkpt lat="48.64266" lon="-2.31019">
        <ele>24.4</ele>
        <time>2013-09-26T08:15:01Z</time>
      </trkpt>
      <trkpt lat="48.64274" lon="-2.31018">
        <ele>22.8</ele>
        <time>2013-09-26T08:15:09Z</time>
      </trkpt>
      <trkpt lat="48.64283" lon="-2.31015">
        <ele>22.8</ele>
        <time>2013-09-26T08:15:18Z</time>
      </trkpt>
      <trkpt lat="48.6429" lon="-2.3101">
        <ele>21.7</ele>
        <time>2013-09-26T08:15:26Z</time>
      </trkpt>
      <trkpt lat="48.64291" lon="-2.31009">
        <ele>21.6</ele>
        <time>2013-09-26T08:15:27Z</time>
      </trkpt>
      <trkpt lat="48.64306" lon="-2.31005">
        <ele>23.9</ele>
        <time>2013-09-26T08:15:41Z</time>
      </trkpt>
      <trkpt lat="48.64314" lon="-2.31">
        <ele>23.9</ele>
        <time>2013-09-26T08:15:54Z</time>
      </trkpt>
      <trkpt lat="48.64322" lon="-2.30996">
        <ele>24.8</ele>
        <time>2013-09-26T08:16:04Z</time>
      </trkpt>
      <trkpt lat="48.6433" lon="-2.30991">
        <ele>24</ele>
        <time>2013-09-26T08:16:15Z</time>
      </trkpt>
      <trkpt lat="48.64339" lon="-2.30989">
        <ele>24.2</ele>
        <time>2013-09-26T08:16:24Z</time>
      </trkpt>
      <trkpt lat="48.64346" lon="-2.30989">
        <ele>25.2</ele>
        <time>2013-09-26T08:16:32Z</time>
      </trkpt>
      <trkpt lat="48.64348" lon="-2.30989">
        <ele>25.4</ele>
        <time>2013-09-26T08:16:33Z</time>
      </trkpt>
      <trkpt lat="48.64363" lon="-2.30985">
        <ele>24.1</ele>
        <time>2013-09-26T08:16:48Z</time>
      </trkpt>
      <trkpt lat="48.64371" lon="-2.30979">
        <ele>24</ele>
        <time>2013-09-26T08:16:55Z</time>
      </trkpt>
      <trkpt lat="48.64378" lon="-2.30973">
        <ele>25.1</ele>
        <time>2013-09-26T08:17:02Z</time>
      </trkpt>
      <trkpt lat="48.64384" lon="-2.30967">
        <ele>25</ele>
        <time>2013-09-26T08:17:06Z</time>
      </trkpt>
      <trkpt lat="48.64392" lon="-2.3096">
        <ele>23.9</ele>
        <time>2013-09-26T08:17:11Z</time>
      </trkpt>
      <trkpt lat="48.64399" lon="-2.30954">
        <ele>23.7</ele>
        <time>2013-09-26T08:17:17Z</time>
      </trkpt>
      <trkpt lat="48.64406" lon="-2.30947">
        <ele>23</ele>
        <time>2013-09-26T08:17:23Z</time>
      </trkpt>
      <trkpt lat="48.64413" lon="-2.30941">
        <ele>22.3</ele>
        <time>2013-09-26T08:17:29Z</time>
      </trkpt>
      <trkpt lat="48.64421" lon="-2.30936">
        <ele>22.6</ele>
        <time>2013-09-26T08:17:37Z</time>
      </trkpt>
      <trkpt lat="48.64422" lon="-2.30935">
        <ele>22.4</ele>
        <time>2013-09-26T08:17:38Z</time>
      </trkpt>
      <trkpt lat="48.64436" lon="-2.30923">
        <ele>20.4</ele>
        <time>2013-09-26T08:17:52Z</time>
      </trkpt>
      <trkpt lat="48.64441" lon="-2.30915">
        <ele>19.9</ele>
        <time>2013-09-26T08:17:57Z</time>
      </trkpt>
      <trkpt lat="48.64447" lon="-2.30905">
        <ele>20.3</ele>
        <time>2013-09-26T08:18:03Z</time>
      </trkpt>
      <trkpt lat="48.64454" lon="-2.30899">
        <ele>21.8</ele>
        <time>2013-09-26T08:18:11Z</time>
      </trkpt>
      <trkpt lat="48.64462" lon="-2.309">
        <ele>23.9</ele>
        <time>2013-09-26T08:18:18Z</time>
      </trkpt>
      <trkpt lat="48.64469" lon="-2.30895">
        <ele>25.1</ele>
        <time>2013-09-26T08:18:24Z</time>
      </trkpt>
      <trkpt lat="48.64476" lon="-2.3089">
        <ele>23.9</ele>
        <time>2013-09-26T08:18:28Z</time>
      </trkpt>
      <trkpt lat="48.64484" lon="-2.30884">
        <ele>22.8</ele>
        <time>2013-09-26T08:18:33Z</time>
      </trkpt>
      <trkpt lat="48.64491" lon="-2.30876">
        <ele>24.1</ele>
        <time>2013-09-26T08:18:41Z</time>
      </trkpt>
      <trkpt lat="48.64492" lon="-2.30875">
        <ele>24.2</ele>
        <time>2013-09-26T08:18:42Z</time>
      </trkpt>
      <trkpt lat="48.64503" lon="-2.30859">
        <ele>23.6</ele>
        <time>2013-09-26T08:18:56Z</time>
      </trkpt>
      <trkpt lat="48.6451" lon="-2.30853">
        <ele>21.4</ele>
        <time>2013-09-26T08:19:02Z</time>
      </trkpt>
      <trkpt lat="48.64518" lon="-2.30854">
        <ele>21.2</ele>
        <time>2013-09-26T08:19:08Z</time>
      </trkpt>
      <trkpt lat="48.64526" lon="-2.30858">
        <ele>22.8</ele>
        <time>2013-09-26T08:19:14Z</time>
      </trkpt>
      <trkpt lat="48.64535" lon="-2.30863">
        <ele>24</ele>
        <time>2013-09-26T08:19:22Z</time>
      </trkpt>
      <trkpt lat="48.64543" lon="-2.30859">
        <ele>26.8</ele>
        <time>2013-09-26T08:19:32Z</time>
      </trkpt>
      <trkpt lat="48.64551" lon="-2.30853">
        <ele>28.9</ele>
        <time>2013-09-26T08:19:46Z</time>
      </trkpt>
      <trkpt lat="48.64551" lon="-2.30852">
        <ele>29.3</ele>
        <time>2013-09-26T08:19:47Z</time>
      </trkpt>
      <trkpt lat="48.64562" lon="-2.30834">
        <ele>34.4</ele>
        <time>2013-09-26T08:20:07Z</time>
      </trkpt>
      <trkpt lat="48.64569" lon="-2.30826">
        <ele>35.8</ele>
        <time>2013-09-26T08:20:17Z</time>
      </trkpt>
      <trkpt lat="48.64577" lon="-2.30821">
        <ele>37.6</ele>
        <time>2013-09-26T08:20:27Z</time>
      </trkpt>
      <trkpt lat="48.64584" lon="-2.30814">
        <ele>40.7</ele>
        <time>2013-09-26T08:20:39Z</time>
      </trkpt>
      <trkpt lat="48.64591" lon="-2.30808">
        <ele>41.3</ele>
        <time>2013-09-26T08:20:45Z</time>
      </trkpt>
      <trkpt lat="48.64598" lon="-2.30803">
        <ele>40.2</ele>
        <time>2013-09-26T08:20:50Z</time>
      </trkpt>
      <trkpt lat="48.646" lon="-2.30802">
        <ele>40.1</ele>
        <time>2013-09-26T08:20:51Z</time>
      </trkpt>
      <trkpt lat="48.64612" lon="-2.30791">
        <ele>39.2</ele>
        <time>2013-09-26T08:21:01Z</time>
      </trkpt>
      <trkpt lat="48.64618" lon="-2.30782">
        <ele>37.8</ele>
        <time>2013-09-26T08:21:08Z</time>
      </trkpt>
      <trkpt lat="48.64624" lon="-2.30774">
        <ele>37.8</ele>
        <time>2013-09-26T08:21:16Z</time>
      </trkpt>
      <trkpt lat="48.64631" lon="-2.30766">
        <ele>37.5</ele>
        <time>2013-09-26T08:21:23Z</time>
      </trkpt>
      <trkpt lat="48.64637" lon="-2.30758">
        <ele>37.5</ele>
        <time>2013-09-26T08:21:29Z</time>
      </trkpt>
      <trkpt lat="48.64643" lon="-2.30749">
        <ele>37.1</ele>
        <time>2013-09-26T08:21:35Z</time>
      </trkpt>
      <trkpt lat="48.64648" lon="-2.30739">
        <ele>37</ele>
        <time>2013-09-26T08:21:42Z</time>
      </trkpt>
      <trkpt lat="48.64654" lon="-2.3073">
        <ele>36.3</ele>
        <time>2013-09-26T08:21:48Z</time>
      </trkpt>
      <trkpt lat="48.6466" lon="-2.30719">
        <ele>35.3</ele>
        <time>2013-09-26T08:21:56Z</time>
      </trkpt>
      <trkpt lat="48.6466" lon="-2.30718">
        <ele>35.5</ele>
        <time>2013-09-26T08:21:57Z</time>
      </trkpt>
      <trkpt lat="48.64669" lon="-2.30699">
        <ele>34.1</ele>
        <time>2013-09-26T08:22:11Z</time>
      </trkpt>
      <trkpt lat="48.6467" lon="-2.30687">
        <ele>32.1</ele>
        <time>2013-09-26T08:22:17Z</time>
      </trkpt>
      <trkpt lat="48.6467" lon="-2.30673">
        <ele>31.1</ele>
        <time>2013-09-26T08:22:25Z</time>
      </trkpt>
      <trkpt lat="48.64673" lon="-2.30662">
        <ele>30.2</ele>
        <time>2013-09-26T08:22:34Z</time>
      </trkpt>
      <trkpt lat="48.6468" lon="-2.30653">
        <ele>31.9</ele>
        <time>2013-09-26T08:22:51Z</time>
      </trkpt>
      <trkpt lat="48.64685" lon="-2.30645">
        <ele>33.4</ele>
        <time>2013-09-26T08:23:01Z</time>
      </trkpt>
      <trkpt lat="48.64686" lon="-2.30643">
        <ele>33.5</ele>
        <time>2013-09-26T08:23:02Z</time>
      </trkpt>
      <trkpt lat="48.6469" lon="-2.30622">
        <ele>35.1</ele>
        <time>2013-09-26T08:23:12Z</time>
      </trkpt>
      <trkpt lat="48.64694" lon="-2.30611">
        <ele>34.6</ele>
        <time>2013-09-26T08:23:19Z</time>
      </trkpt>
      <trkpt lat="48.647" lon="-2.30601">
        <ele>32</ele>
        <time>2013-09-26T08:23:28Z</time>
      </trkpt>
      <trkpt lat="48.64706" lon="-2.30592">
        <ele>34.2</ele>
        <time>2013-09-26T08:23:36Z</time>
      </trkpt>
      <trkpt lat="48.64714" lon="-2.30586">
        <ele>32.8</ele>
        <time>2013-09-26T08:23:42Z</time>
      </trkpt>
      <trkpt lat="48.64721" lon="-2.3058">
        <ele>32.2</ele>
        <time>2013-09-26T08:23:48Z</time>
      </trkpt>
      <trkpt lat="48.64728" lon="-2.30572">
        <ele>31.6</ele>
        <time>2013-09-26T08:23:54Z</time>
      </trkpt>
      <trkpt lat="48.64734" lon="-2.30565">
        <ele>30.5</ele>
        <time>2013-09-26T08:23:59Z</time>
      </trkpt>
      <trkpt lat="48.6474" lon="-2.30557">
        <ele>29.8</ele>
        <time>2013-09-26T08:24:04Z</time>
      </trkpt>
      <trkpt lat="48.64741" lon="-2.30556">
        <ele>29.7</ele>
        <time>2013-09-26T08:24:05Z</time>
      </trkpt>
      <trkpt lat="48.64755" lon="-2.30546">
        <ele>27.4</ele>
        <time>2013-09-26T08:24:14Z</time>
      </trkpt>
      <trkpt lat="48.64762" lon="-2.30541">
        <ele>27.1</ele>
        <time>2013-09-26T08:24:18Z</time>
      </trkpt>
      <trkpt lat="48.6477" lon="-2.30535">
        <ele>26.4</ele>
        <time>2013-09-26T08:24:22Z</time>
      </trkpt>
      <trkpt lat="48.64778" lon="-2.3053">
        <ele>25</ele>
        <time>2013-09-26T08:24:27Z</time>
      </trkpt>
      <trkpt lat="48.64785" lon="-2.30522">
        <ele>22.2</ele>
        <time>2013-09-26T08:24:34Z</time>
      </trkpt>
      <trkpt lat="48.64792" lon="-2.30515">
        <ele>21.6</ele>
        <time>2013-09-26T08:24:40Z</time>
      </trkpt>
      <trkpt lat="48.64799" lon="-2.30508">
        <ele>22.7</ele>
        <time>2013-09-26T08:24:48Z</time>
      </trkpt>
      <trkpt lat="48.64803" lon="-2.30496">
        <ele>23.1</ele>
        <time>2013-09-26T08:24:59Z</time>
      </trkpt>
      <trkpt lat="48.64798" lon="-2.30485">
        <ele>23.6</ele>
        <time>2013-09-26T08:25:05Z</time>
      </trkpt>
      <trkpt lat="48.64797" lon="-2.30484">
        <ele>23.6</ele>
        <time>2013-09-26T08:25:06Z</time>
      </trkpt>
      <trkpt lat="48.64796" lon="-2.30462">
        <ele>25.6</ele>
        <time>2013-09-26T08:25:23Z</time>
      </trkpt>
      <trkpt lat="48.64798" lon="-2.30451">
        <ele>26.8</ele>
        <time>2013-09-26T08:25:29Z</time>
      </trkpt>
      <trkpt lat="48.64801" lon="-2.30439">
        <ele>27</ele>
        <time>2013-09-26T08:25:34Z</time>
      </trkpt>
      <trkpt lat="48.64804" lon="-2.30428">
        <ele>27.7</ele>
        <time>2013-09-26T08:25:41Z</time>
      </trkpt>
      <trkpt lat="48.64809" lon="-2.30418">
        <ele>30.4</ele>
        <time>2013-09-26T08:25:48Z</time>
      </trkpt>
      <trkpt lat="48.64816" lon="-2.30409">
        <ele>30.9</ele>
        <time>2013-09-26T08:25:55Z</time>
      </trkpt>
      <trkpt lat="48.6482" lon="-2.30399">
        <ele>30.2</ele>
        <time>2013-09-26T08:26:01Z</time>
      </trkpt>
      <trkpt lat="48.64822" lon="-2.30386">
        <ele>29.9</ele>
        <time>2013-09-26T08:26:09Z</time>
      </trkpt>
      <trkpt lat="48.64822" lon="-2.30385">
        <ele>29.8</ele>
        <time>2013-09-26T08:26:10Z</time>
      </trkpt>
      <trkpt lat="48.6483" lon="-2.30363">
        <ele>28.6</ele>
        <time>2013-09-26T08:26:26Z</time>
      </trkpt>
      <trkpt lat="48.64836" lon="-2.30354">
        <ele>28.6</ele>
        <time>2013-09-26T08:26:34Z</time>
      </trkpt>
      <trkpt lat="48.64844" lon="-2.30352">
        <ele>28.9</ele>
        <time>2013-09-26T08:26:42Z</time>
      </trkpt>
      <trkpt lat="48.64853" lon="-2.30351">
        <ele>29.1</ele>
        <time>2013-09-26T08:26:50Z</time>
      </trkpt>
      <trkpt lat="48.64861" lon="-2.30348">
        <ele>26.9</ele>
        <time>2013-09-26T08:26:58Z</time>
      </trkpt>
      <trkpt lat="48.64869" lon="-2.30345">
        <ele>27.1</ele>
        <time>2013-09-26T08:27:06Z</time>
      </trkpt>
      <trkpt lat="48.64877" lon="-2.30342">
        <ele>27.2</ele>
        <time>2013-09-26T08:27:12Z</time>
      </trkpt>
      <trkpt lat="48.64879" lon="-2.30342">
        <ele>26.5</ele>
        <time>2013-09-26T08:27:13Z</time>
      </trkpt>
      <trkpt lat="48.64893" lon="-2.30335">
        <ele>26.4</ele>
        <time>2013-09-26T08:27:24Z</time>
      </trkpt>
      <trkpt lat="48.64901" lon="-2.3033">
        <ele>25.3</ele>
        <time>2013-09-26T08:27:31Z</time>
      </trkpt>
      <trkpt lat="48.64905" lon="-2.30319">
        <ele>24.6</ele>
        <time>2013-09-26T08:27:37Z</time>
      </trkpt>
      <trkpt lat="48.64909" lon="-2.30309">
        <ele>23</ele>
        <time>2013-09-26T08:27:45Z</time>
      </trkpt>
      <trkpt lat="48.64914" lon="-2.30299">
        <ele>21.7</ele>
        <time>2013-09-26T08:27:52Z</time>
      </trkpt>
      <trkpt lat="48.64918" lon="-2.3029">
        <ele>20.2</ele>
        <time>2013-09-26T08:27:57Z</time>
      </trkpt>
      <trkpt lat="48.64923" lon="-2.30279">
        <ele>20</ele>
        <time>2013-09-26T08:28:03Z</time>
      </trkpt>
      <trkpt lat="48.64927" lon="-2.30267">
        <ele>18.6</ele>
        <time>2013-09-26T08:28:10Z</time>
      </trkpt>
      <trkpt lat="48.64931" lon="-2.30256">
        <ele>17.4</ele>
        <time>2013-09-26T08:28:16Z</time>
      </trkpt>
      <trkpt lat="48.64932" lon="-2.30254">
        <ele>17.3</ele>
        <time>2013-09-26T08:28:17Z</time>
      </trkpt>
      <trkpt lat="48.64945" lon="-2.30245">
        <ele>21.9</ele>
        <time>2013-09-26T08:28:35Z</time>
      </trkpt>
      <trkpt lat="48.64954" lon="-2.30243">
        <ele>26</ele>
        <time>2013-09-26T08:28:45Z</time>
      </trkpt>
      <trkpt lat="48.6496" lon="-2.30233">
        <ele>30.3</ele>
        <time>2013-09-26T08:29:02Z</time>
      </trkpt>
      <trkpt lat="48.64967" lon="-2.30227">
        <ele>32.4</ele>
        <time>2013-09-26T08:29:14Z</time>
      </trkpt>
      <trkpt lat="48.64972" lon="-2.30215">
        <ele>34.7</ele>
        <time>2013-09-26T08:29:28Z</time>
      </trkpt>
      <trkpt lat="48.64972" lon="-2.30214">
        <ele>34.9</ele>
        <time>2013-09-26T08:29:29Z</time>
      </trkpt>
      <trkpt lat="48.64971" lon="-2.3019">
        <ele>36.4</ele>
        <time>2013-09-26T08:29:42Z</time>
      </trkpt>
      <trkpt lat="48.64972" lon="-2.30178">
        <ele>36.7</ele>
        <time>2013-09-26T08:29:48Z</time>
      </trkpt>
      <trkpt lat="48.64976" lon="-2.30167">
        <ele>37</ele>
        <time>2013-09-26T08:29:55Z</time>
      </trkpt>
      <trkpt lat="48.6498" lon="-2.30156">
        <ele>36.3</ele>
        <time>2013-09-26T08:30:02Z</time>
      </trkpt>
      <trkpt lat="48.64986" lon="-2.30148">
        <ele>36.8</ele>
        <time>2013-09-26T08:30:08Z</time>
      </trkpt>
      <trkpt lat="48.64992" lon="-2.3014">
        <ele>36.7</ele>
        <time>2013-09-26T08:30:15Z</time>
      </trkpt>
      <trkpt lat="48.64997" lon="-2.30132">
        <ele>37.2</ele>
        <time>2013-09-26T08:30:21Z</time>
      </trkpt>
      <trkpt lat="48.65003" lon="-2.30123">
        <ele>36.2</ele>
        <time>2013-09-26T08:30:27Z</time>
      </trkpt>
      <trkpt lat="48.6501" lon="-2.30115">
        <ele>35.5</ele>
        <time>2013-09-26T08:30:34Z</time>
      </trkpt>
      <trkpt lat="48.6501" lon="-2.30114">
        <ele>35.4</ele>
        <time>2013-09-26T08:30:35Z</time>
      </trkpt>
      <trkpt lat="48.65024" lon="-2.30103">
        <ele>33.2</ele>
        <time>2013-09-26T08:30:51Z</time>
      </trkpt>
      <trkpt lat="48.65031" lon="-2.30094">
        <ele>33.9</ele>
        <time>2013-09-26T08:31:00Z</time>
      </trkpt>
      <trkpt lat="48.65039" lon="-2.30089">
        <ele>33.6</ele>
        <time>2013-09-26T08:31:08Z</time>
      </trkpt>
      <trkpt lat="48.65046" lon="-2.30084">
        <ele>32.4</ele>
        <time>2013-09-26T08:31:15Z</time>
      </trkpt>
      <trkpt lat="48.65054" lon="-2.30082">
        <ele>30.8</ele>
        <time>2013-09-26T08:31:20Z</time>
      </trkpt>
      <trkpt lat="48.65062" lon="-2.30079">
        <ele>30.5</ele>
        <time>2013-09-26T08:31:24Z</time>
      </trkpt>
      <trkpt lat="48.65069" lon="-2.30075">
        <ele>28.4</ele>
        <time>2013-09-26T08:31:29Z</time>
      </trkpt>
      <trkpt lat="48.65076" lon="-2.30067">
        <ele>26.7</ele>
        <time>2013-09-26T08:31:36Z</time>
      </trkpt>
      <trkpt lat="48.65077" lon="-2.30066">
        <ele>26.2</ele>
        <time>2013-09-26T08:31:37Z</time>
      </trkpt>
      <trkpt lat="48.65083" lon="-2.30044">
        <ele>22.6</ele>
        <time>2013-09-26T08:31:49Z</time>
      </trkpt>
      <trkpt lat="48.65086" lon="-2.30033">
        <ele>20.1</ele>
        <time>2013-09-26T08:31:58Z</time>
      </trkpt>
      <trkpt lat="48.65094" lon="-2.30029">
        <ele>19.6</ele>
        <time>2013-09-26T08:32:06Z</time>
      </trkpt>
      <trkpt lat="48.65103" lon="-2.30029">
        <ele>17.2</ele>
        <time>2013-09-26T08:32:42Z</time>
      </trkpt>
      <trkpt lat="48.65103" lon="-2.30029">
        <ele>17.1</ele>
        <time>2013-09-26T08:32:43Z</time>
      </trkpt>
      <trkpt lat="48.65114" lon="-2.30014">
        <ele>17.1</ele>
        <time>2013-09-26T08:33:16Z</time>
      </trkpt>
      <trkpt lat="48.65105" lon="-2.30018">
        <ele>16.8</ele>
        <time>2013-09-26T08:40:22Z</time>
      </trkpt>
      <trkpt lat="48.65105" lon="-2.30018">
        <ele>16.6</ele>
        <time>2013-09-26T08:40:23Z</time>
      </trkpt>
      <trkpt lat="48.6512" lon="-2.30011">
        <ele>19.1</ele>
        <time>2013-09-26T08:42:08Z</time>
      </trkpt>
      <trkpt lat="48.65121" lon="-2.30012">
        <ele>19.2</ele>
        <time>2013-09-26T08:42:09Z</time>
      </trkpt>
      <trkpt lat="48.65135" lon="-2.30026">
        <ele>19.3</ele>
        <time>2013-09-26T08:42:27Z</time>
      </trkpt>
      <trkpt lat="48.65143" lon="-2.3003">
        <ele>21.8</ele>
        <time>2013-09-26T08:42:37Z</time>
      </trkpt>
      <trkpt lat="48.65152" lon="-2.30032">
        <ele>23.9</ele>
        <time>2013-09-26T08:42:48Z</time>
      </trkpt>
      <trkpt lat="48.65155" lon="-2.30019">
        <ele>25.8</ele>
        <time>2013-09-26T08:42:58Z</time>
      </trkpt>
      <trkpt lat="48.65157" lon="-2.30006">
        <ele>30.3</ele>
        <time>2013-09-26T08:43:24Z</time>
      </trkpt>
      <trkpt lat="48.65157" lon="-2.30006">
        <ele>30.8</ele>
        <time>2013-09-26T08:43:25Z</time>
      </trkpt>
      <trkpt lat="48.65161" lon="-2.29981">
        <ele>35.2</ele>
        <time>2013-09-26T08:44:01Z</time>
      </trkpt>
      <trkpt lat="48.6516" lon="-2.29968">
        <ele>39.5</ele>
        <time>2013-09-26T08:44:14Z</time>
      </trkpt>
      <trkpt lat="48.65158" lon="-2.29955">
        <ele>42.9</ele>
        <time>2013-09-26T08:44:37Z</time>
      </trkpt>
      <trkpt lat="48.65158" lon="-2.29953">
        <ele>42.9</ele>
        <time>2013-09-26T08:44:38Z</time>
      </trkpt>
      <trkpt lat="48.65155" lon="-2.29931">
        <ele>44.7</ele>
        <time>2013-09-26T08:44:49Z</time>
      </trkpt>
      <trkpt lat="48.65156" lon="-2.29918">
        <ele>48</ele>
        <time>2013-09-26T08:45:02Z</time>
      </trkpt>
      <trkpt lat="48.65159" lon="-2.29905">
        <ele>49.8</ele>
        <time>2013-09-26T08:45:16Z</time>
      </trkpt>
      <trkpt lat="48.65166" lon="-2.29898">
        <ele>51.1</ele>
        <time>2013-09-26T08:45:28Z</time>
      </trkpt>
      <trkpt lat="48.65175" lon="-2.29901">
        <ele>52.3</ele>
        <time>2013-09-26T08:45:35Z</time>
      </trkpt>
      <trkpt lat="48.65182" lon="-2.29906">
        <ele>53.8</ele>
        <time>2013-09-26T08:45:41Z</time>
      </trkpt>
      <trkpt lat="48.65183" lon="-2.29907">
        <ele>54</ele>
        <time>2013-09-26T08:45:42Z</time>
      </trkpt>
      <trkpt lat="48.65196" lon="-2.29902">
        <ele>56.6</ele>
        <time>2013-09-26T08:45:57Z</time>
      </trkpt>
      <trkpt lat="48.65205" lon="-2.29899">
        <ele>58.4</ele>
        <time>2013-09-26T08:46:08Z</time>
      </trkpt>
      <trkpt lat="48.65213" lon="-2.29893">
        <ele>60.1</ele>
        <time>2013-09-26T08:46:17Z</time>
      </trkpt>
      <trkpt lat="48.65221" lon="-2.29891">
        <ele>61.2</ele>
        <time>2013-09-26T08:46:25Z</time>
      </trkpt>
      <trkpt lat="48.65229" lon="-2.29896">
        <ele>62.2</ele>
        <time>2013-09-26T08:46:32Z</time>
      </trkpt>
      <trkpt lat="48.65237" lon="-2.299">
        <ele>61.6</ele>
        <time>2013-09-26T08:46:39Z</time>
      </trkpt>
      <trkpt lat="48.65244" lon="-2.29905">
        <ele>62.6</ele>
        <time>2013-09-26T08:46:46Z</time>
      </trkpt>
      <trkpt lat="48.65245" lon="-2.29906">
        <ele>62.5</ele>
        <time>2013-09-26T08:46:47Z</time>
      </trkpt>
      <trkpt lat="48.6526" lon="-2.29907">
        <ele>61.6</ele>
        <time>2013-09-26T08:47:00Z</time>
      </trkpt>
      <trkpt lat="48.65264" lon="-2.29897">
        <ele>62.6</ele>
        <time>2013-09-26T08:47:05Z</time>
      </trkpt>
      <trkpt lat="48.65267" lon="-2.29886">
        <ele>61.3</ele>
        <time>2013-09-26T08:47:11Z</time>
      </trkpt>
      <trkpt lat="48.65273" lon="-2.29878">
        <ele>61</ele>
        <time>2013-09-26T08:47:20Z</time>
      </trkpt>
      <trkpt lat="48.65281" lon="-2.29874">
        <ele>59.9</ele>
        <time>2013-09-26T08:47:29Z</time>
      </trkpt>
      <trkpt lat="48.65288" lon="-2.29869">
        <ele>57.6</ele>
        <time>2013-09-26T08:47:37Z</time>
      </trkpt>
      <trkpt lat="48.65296" lon="-2.29862">
        <ele>56.9</ele>
        <time>2013-09-26T08:47:44Z</time>
      </trkpt>
      <trkpt lat="48.65304" lon="-2.29857">
        <ele>55.7</ele>
        <time>2013-09-26T08:47:50Z</time>
      </trkpt>
      <trkpt lat="48.65305" lon="-2.29856">
        <ele>55.4</ele>
        <time>2013-09-26T08:47:51Z</time>
      </trkpt>
      <trkpt lat="48.65319" lon="-2.29853">
        <ele>52.5</ele>
        <time>2013-09-26T08:48:02Z</time>
      </trkpt>
      <trkpt lat="48.65328" lon="-2.29851">
        <ele>51.7</ele>
        <time>2013-09-26T08:48:07Z</time>
      </trkpt>
      <trkpt lat="48.65336" lon="-2.2985">
        <ele>52.3</ele>
        <time>2013-09-26T08:48:13Z</time>
      </trkpt>
      <trkpt lat="48.65345" lon="-2.29849">
        <ele>51.7</ele>
        <time>2013-09-26T08:48:20Z</time>
      </trkpt>
      <trkpt lat="48.65353" lon="-2.29848">
        <ele>51.7</ele>
        <time>2013-09-26T08:48:27Z</time>
      </trkpt>
      <trkpt lat="48.65362" lon="-2.29849">
        <ele>51.5</ele>
        <time>2013-09-26T08:48:34Z</time>
      </trkpt>
      <trkpt lat="48.6537" lon="-2.29847">
        <ele>50.7</ele>
        <time>2013-09-26T08:48:41Z</time>
      </trkpt>
      <trkpt lat="48.65379" lon="-2.29845">
        <ele>49.6</ele>
        <time>2013-09-26T08:48:47Z</time>
      </trkpt>
      <trkpt lat="48.65387" lon="-2.29844">
        <ele>50.2</ele>
        <time>2013-09-26T08:48:53Z</time>
      </trkpt>
      <trkpt lat="48.65389" lon="-2.29844">
        <ele>50.3</ele>
        <time>2013-09-26T08:48:54Z</time>
      </trkpt>
      <trkpt lat="48.65404" lon="-2.29845">
        <ele>49.8</ele>
        <time>2013-09-26T08:49:04Z</time>
      </trkpt>
      <trkpt lat="48.65412" lon="-2.29845">
        <ele>49.4</ele>
        <time>2013-09-26T08:49:12Z</time>
      </trkpt>
      <trkpt lat="48.6542" lon="-2.29845">
        <ele>48.6</ele>
        <time>2013-09-26T08:49:17Z</time>
      </trkpt>
      <trkpt lat="48.65428" lon="-2.29844">
        <ele>47.9</ele>
        <time>2013-09-26T08:49:22Z</time>
      </trkpt>
      <trkpt lat="48.65436" lon="-2.29844">
        <ele>46.8</ele>
        <time>2013-09-26T08:49:28Z</time>
      </trkpt>
      <trkpt lat="48.65444" lon="-2.2985">
        <ele>46.8</ele>
        <time>2013-09-26T08:49:36Z</time>
      </trkpt>
      <trkpt lat="48.65449" lon="-2.2986">
        <ele>48.7</ele>
        <time>2013-09-26T08:49:44Z</time>
      </trkpt>
      <trkpt lat="48.65455" lon="-2.2987">
        <ele>49.4</ele>
        <time>2013-09-26T08:49:51Z</time>
      </trkpt>
      <trkpt lat="48.6546" lon="-2.29879">
        <ele>51.7</ele>
        <time>2013-09-26T08:49:57Z</time>
      </trkpt>
      <trkpt lat="48.65461" lon="-2.2988">
        <ele>51.6</ele>
        <time>2013-09-26T08:49:58Z</time>
      </trkpt>
      <trkpt lat="48.65473" lon="-2.29896">
        <ele>51.6</ele>
        <time>2013-09-26T08:50:14Z</time>
      </trkpt>
      <trkpt lat="48.65481" lon="-2.29903">
        <ele>52.5</ele>
        <time>2013-09-26T08:50:22Z</time>
      </trkpt>
      <trkpt lat="48.65488" lon="-2.29909">
        <ele>54.2</ele>
        <time>2013-09-26T08:50:30Z</time>
      </trkpt>
      <trkpt lat="48.65496" lon="-2.29911">
        <ele>53.6</ele>
        <time>2013-09-26T08:50:36Z</time>
      </trkpt>
      <trkpt lat="48.65503" lon="-2.29919">
        <ele>53.5</ele>
        <time>2013-09-26T08:50:43Z</time>
      </trkpt>
      <trkpt lat="48.65511" lon="-2.29924">
        <ele>52.5</ele>
        <time>2013-09-26T08:50:51Z</time>
      </trkpt>
      <trkpt lat="48.65519" lon="-2.29926">
        <ele>51.3</ele>
        <time>2013-09-26T08:51:00Z</time>
      </trkpt>
      <trkpt lat="48.6552" lon="-2.29926">
        <ele>50.9</ele>
        <time>2013-09-26T08:51:01Z</time>
      </trkpt>
      <trkpt lat="48.65536" lon="-2.29929">
        <ele>42.3</ele>
        <time>2013-09-26T08:51:37Z</time>
      </trkpt>
      <trkpt lat="48.65544" lon="-2.29935">
        <ele>40.5</ele>
        <time>2013-09-26T08:51:57Z</time>
      </trkpt>
      <trkpt lat="48.65548" lon="-2.29924">
        <ele>42.7</ele>
        <time>2013-09-26T08:52:18Z</time>
      </trkpt>
      <trkpt lat="48.65548" lon="-2.29922">
        <ele>42.8</ele>
        <time>2013-09-26T08:52:19Z</time>
      </trkpt>
      <trkpt lat="48.65551" lon="-2.29899">
        <ele>40.1</ele>
        <time>2013-09-26T08:52:31Z</time>
      </trkpt>
      <trkpt lat="48.65552" lon="-2.29886">
        <ele>39.6</ele>
        <time>2013-09-26T08:52:38Z</time>
      </trkpt>
      <trkpt lat="48.65553" lon="-2.29874">
        <ele>38.4</ele>
        <time>2013-09-26T08:52:45Z</time>
      </trkpt>
      <trkpt lat="48.65554" lon="-2.29861">
        <ele>37.9</ele>
        <time>2013-09-26T08:52:53Z</time>
      </trkpt>
      <trkpt lat="48.65555" lon="-2.29849">
        <ele>35.1</ele>
        <time>2013-09-26T08:53:00Z</time>
      </trkpt>
      <trkpt lat="48.65555" lon="-2.29836">
        <ele>35</ele>
        <time>2013-09-26T08:53:06Z</time>
      </trkpt>
      <trkpt lat="48.65556" lon="-2.29824">
        <ele>33.9</ele>
        <time>2013-09-26T08:53:12Z</time>
      </trkpt>
      <trkpt lat="48.65558" lon="-2.29812">
        <ele>33.5</ele>
        <time>2013-09-26T08:53:19Z</time>
      </trkpt>
      <trkpt lat="48.65558" lon="-2.2981">
        <ele>33.3</ele>
        <time>2013-09-26T08:53:20Z</time>
      </trkpt>
      <trkpt lat="48.65565" lon="-2.29789">
        <ele>31</ele>
        <time>2013-09-26T08:53:36Z</time>
      </trkpt>
      <trkpt lat="48.6557" lon="-2.29778">
        <ele>31.7</ele>
        <time>2013-09-26T08:53:43Z</time>
      </trkpt>
      <trkpt lat="48.65575" lon="-2.29767">
        <ele>32.1</ele>
        <time>2013-09-26T08:53:50Z</time>
      </trkpt>
      <trkpt lat="48.65581" lon="-2.2976">
        <ele>32.9</ele>
        <time>2013-09-26T08:53:55Z</time>
      </trkpt>
      <trkpt lat="48.65587" lon="-2.29754">
        <ele>33.4</ele>
        <time>2013-09-26T08:53:59Z</time>
      </trkpt>
      <trkpt lat="48.65594" lon="-2.29748">
        <ele>34.6</ele>
        <time>2013-09-26T08:54:03Z</time>
      </trkpt>
      <trkpt lat="48.65602" lon="-2.29744">
        <ele>35.6</ele>
        <time>2013-09-26T08:54:12Z</time>
      </trkpt>
      <trkpt lat="48.65611" lon="-2.29741">
        <ele>36.7</ele>
        <time>2013-09-26T08:54:25Z</time>
      </trkpt>
      <trkpt lat="48.65611" lon="-2.29741">
        <ele>36.8</ele>
        <time>2013-09-26T08:54:26Z</time>
      </trkpt>
      <trkpt lat="48.65628" lon="-2.29737">
        <ele>30.6</ele>
        <time>2013-09-26T08:55:01Z</time>
      </trkpt>
      <trkpt lat="48.65634" lon="-2.29727">
        <ele>30.4</ele>
        <time>2013-09-26T08:55:12Z</time>
      </trkpt>
      <trkpt lat="48.65637" lon="-2.29715">
        <ele>34</ele>
        <time>2013-09-26T08:55:26Z</time>
      </trkpt>
      <trkpt lat="48.65637" lon="-2.29715">
        <ele>34.3</ele>
        <time>2013-09-26T08:55:27Z</time>
      </trkpt>
      <trkpt lat="48.65648" lon="-2.29695">
        <ele>36.6</ele>
        <time>2013-09-26T08:55:45Z</time>
      </trkpt>
      <trkpt lat="48.65653" lon="-2.29686">
        <ele>36.6</ele>
        <time>2013-09-26T08:55:52Z</time>
      </trkpt>
      <trkpt lat="48.65659" lon="-2.29676">
        <ele>36.9</ele>
        <time>2013-09-26T08:56:00Z</time>
      </trkpt>
      <trkpt lat="48.65666" lon="-2.29667">
        <ele>36</ele>
        <time>2013-09-26T08:56:05Z</time>
      </trkpt>
      <trkpt lat="48.65672" lon="-2.29658">
        <ele>36.1</ele>
        <time>2013-09-26T08:56:11Z</time>
      </trkpt>
      <trkpt lat="48.6568" lon="-2.29653">
        <ele>36</ele>
        <time>2013-09-26T08:56:19Z</time>
      </trkpt>
      <trkpt lat="48.65688" lon="-2.2965">
        <ele>34.9</ele>
        <time>2013-09-26T08:56:28Z</time>
      </trkpt>
      <trkpt lat="48.65689" lon="-2.29649">
        <ele>34.6</ele>
        <time>2013-09-26T08:56:29Z</time>
      </trkpt>
      <trkpt lat="48.65704" lon="-2.29638">
        <ele>34.5</ele>
        <time>2013-09-26T08:56:44Z</time>
      </trkpt>
      <trkpt lat="48.65712" lon="-2.29636">
        <ele>35.2</ele>
        <time>2013-09-26T08:56:50Z</time>
      </trkpt>
      <trkpt lat="48.6572" lon="-2.2963">
        <ele>34.8</ele>
        <time>2013-09-26T08:56:58Z</time>
      </trkpt>
      <trkpt lat="48.65727" lon="-2.29623">
        <ele>33</ele>
        <time>2013-09-26T08:57:06Z</time>
      </trkpt>
      <trkpt lat="48.65734" lon="-2.29617">
        <ele>32.9</ele>
        <time>2013-09-26T08:57:12Z</time>
      </trkpt>
      <trkpt lat="48.65742" lon="-2.29612">
        <ele>31.9</ele>
        <time>2013-09-26T08:57:18Z</time>
      </trkpt>
      <trkpt lat="48.6575" lon="-2.29606">
        <ele>30.3</ele>
        <time>2013-09-26T08:57:24Z</time>
      </trkpt>
      <trkpt lat="48.65757" lon="-2.29603">
        <ele>30.1</ele>
        <time>2013-09-26T08:57:28Z</time>
      </trkpt>
      <trkpt lat="48.65765" lon="-2.29597">
        <ele>30.1</ele>
        <time>2013-09-26T08:57:37Z</time>
      </trkpt>
      <trkpt lat="48.65766" lon="-2.29596">
        <ele>30.1</ele>
        <time>2013-09-26T08:57:38Z</time>
      </trkpt>
      <trkpt lat="48.65779" lon="-2.29582">
        <ele>29.8</ele>
        <time>2013-09-26T08:57:51Z</time>
      </trkpt>
      <trkpt lat="48.65787" lon="-2.29576">
        <ele>30.1</ele>
        <time>2013-09-26T08:57:58Z</time>
      </trkpt>
      <trkpt lat="48.65793" lon="-2.29567">
        <ele>28.9</ele>
        <time>2013-09-26T08:58:06Z</time>
      </trkpt>
      <trkpt lat="48.658" lon="-2.29558">
        <ele>27.1</ele>
        <time>2013-09-26T08:58:14Z</time>
      </trkpt>
      <trkpt lat="48.65804" lon="-2.29547">
        <ele>24.9</ele>
        <time>2013-09-26T08:58:23Z</time>
      </trkpt>
      <trkpt lat="48.65808" lon="-2.29536">
        <ele>22.2</ele>
        <time>2013-09-26T08:58:32Z</time>
      </trkpt>
      <trkpt lat="48.65812" lon="-2.29524">
        <ele>20.7</ele>
        <time>2013-09-26T08:58:40Z</time>
      </trkpt>
      <trkpt lat="48.65813" lon="-2.29523">
        <ele>20.8</ele>
        <time>2013-09-26T08:58:41Z</time>
      </trkpt>
      <trkpt lat="48.65821" lon="-2.29503">
        <ele>19.3</ele>
        <time>2013-09-26T08:58:59Z</time>
      </trkpt>
      <trkpt lat="48.65814" lon="-2.29495">
        <ele>18</ele>
        <time>2013-09-26T08:59:09Z</time>
      </trkpt>
      <trkpt lat="48.65813" lon="-2.29483">
        <ele>18.2</ele>
        <time>2013-09-26T08:59:21Z</time>
      </trkpt>
      <trkpt lat="48.65814" lon="-2.29469">
        <ele>20.4</ele>
        <time>2013-09-26T08:59:28Z</time>
      </trkpt>
      <trkpt lat="48.65814" lon="-2.29456">
        <ele>21.6</ele>
        <time>2013-09-26T08:59:36Z</time>
      </trkpt>
      <trkpt lat="48.65814" lon="-2.29444">
        <ele>23.5</ele>
        <time>2013-09-26T08:59:44Z</time>
      </trkpt>
      <trkpt lat="48.65814" lon="-2.29442">
        <ele>23.7</ele>
        <time>2013-09-26T08:59:45Z</time>
      </trkpt>
      <trkpt lat="48.65822" lon="-2.29424">
        <ele>26.4</ele>
        <time>2013-09-26T09:00:04Z</time>
      </trkpt>
      <trkpt lat="48.65831" lon="-2.29422">
        <ele>28.4</ele>
        <time>2013-09-26T09:00:15Z</time>
      </trkpt>
      <trkpt lat="48.65838" lon="-2.29416">
        <ele>30.6</ele>
        <time>2013-09-26T09:00:32Z</time>
      </trkpt>
      <trkpt lat="48.65846" lon="-2.29411">
        <ele>32.8</ele>
        <time>2013-09-26T09:00:50Z</time>
      </trkpt>
      <trkpt lat="48.65847" lon="-2.2941">
        <ele>32.9</ele>
        <time>2013-09-26T09:00:51Z</time>
      </trkpt>
      <trkpt lat="48.65861" lon="-2.29424">
        <ele>34.8</ele>
        <time>2013-09-26T09:01:50Z</time>
      </trkpt>
      <trkpt lat="48.65867" lon="-2.29431">
        <ele>35.9</ele>
        <time>2013-09-26T09:01:58Z</time>
      </trkpt>
      <trkpt lat="48.65868" lon="-2.29432">
        <ele>36.2</ele>
        <time>2013-09-26T09:01:59Z</time>
      </trkpt>
      <trkpt lat="48.65879" lon="-2.29449">
        <ele>38.4</ele>
        <time>2013-09-26T09:02:24Z</time>
      </trkpt>
      <trkpt lat="48.65886" lon="-2.29458">
        <ele>41</ele>
        <time>2013-09-26T09:02:35Z</time>
      </trkpt>
      <trkpt lat="48.65893" lon="-2.29465">
        <ele>42.1</ele>
        <time>2013-09-26T09:02:46Z</time>
      </trkpt>
      <trkpt lat="48.659" lon="-2.2947">
        <ele>43.1</ele>
        <time>2013-09-26T09:02:56Z</time>
      </trkpt>
      <trkpt lat="48.65908" lon="-2.29475">
        <ele>43.7</ele>
        <time>2013-09-26T09:03:07Z</time>
      </trkpt>
      <trkpt lat="48.65909" lon="-2.29476">
        <ele>44.3</ele>
        <time>2013-09-26T09:03:08Z</time>
      </trkpt>
      <trkpt lat="48.65922" lon="-2.29484">
        <ele>45.2</ele>
        <time>2013-09-26T09:03:22Z</time>
      </trkpt>
      <trkpt lat="48.6593" lon="-2.29489">
        <ele>43.4</ele>
        <time>2013-09-26T09:03:30Z</time>
      </trkpt>
      <trkpt lat="48.65939" lon="-2.29491">
        <ele>41.2</ele>
        <time>2013-09-26T09:03:38Z</time>
      </trkpt>
      <trkpt lat="48.65947" lon="-2.29493">
        <ele>41.2</ele>
        <time>2013-09-26T09:03:45Z</time>
      </trkpt>
      <trkpt lat="48.65956" lon="-2.29495">
        <ele>41.6</ele>
        <time>2013-09-26T09:03:59Z</time>
      </trkpt>
      <trkpt lat="48.65964" lon="-2.29497">
        <ele>43.6</ele>
        <time>2013-09-26T09:04:06Z</time>
      </trkpt>
      <trkpt lat="48.65973" lon="-2.295">
        <ele>44.8</ele>
        <time>2013-09-26T09:04:13Z</time>
      </trkpt>
      <trkpt lat="48.65973" lon="-2.29501">
        <ele>45.2</ele>
        <time>2013-09-26T09:04:14Z</time>
      </trkpt>
      <trkpt lat="48.65991" lon="-2.29499">
        <ele>45.2</ele>
        <time>2013-09-26T09:04:36Z</time>
      </trkpt>
      <trkpt lat="48.65999" lon="-2.29501">
        <ele>45.5</ele>
        <time>2013-09-26T09:04:45Z</time>
      </trkpt>
      <trkpt lat="48.66007" lon="-2.29501">
        <ele>46.6</ele>
        <time>2013-09-26T09:04:55Z</time>
      </trkpt>
      <trkpt lat="48.66015" lon="-2.29494">
        <ele>45.8</ele>
        <time>2013-09-26T09:05:05Z</time>
      </trkpt>
      <trkpt lat="48.66021" lon="-2.29486">
        <ele>44.6</ele>
        <time>2013-09-26T09:05:13Z</time>
      </trkpt>
      <trkpt lat="48.66027" lon="-2.29477">
        <ele>43.8</ele>
        <time>2013-09-26T09:05:23Z</time>
      </trkpt>
      <trkpt lat="48.66028" lon="-2.29476">
        <ele>43.8</ele>
        <time>2013-09-26T09:05:24Z</time>
      </trkpt>
      <trkpt lat="48.66039" lon="-2.2946">
        <ele>41</ele>
        <time>2013-09-26T09:05:38Z</time>
      </trkpt>
      <trkpt lat="48.66044" lon="-2.2945">
        <ele>40</ele>
        <time>2013-09-26T09:05:48Z</time>
      </trkpt>
      <trkpt lat="48.6605" lon="-2.29441">
        <ele>38.8</ele>
        <time>2013-09-26T09:05:56Z</time>
      </trkpt>
      <trkpt lat="48.66056" lon="-2.29432">
        <ele>36.9</ele>
        <time>2013-09-26T09:06:09Z</time>
      </trkpt>
      <trkpt lat="48.66062" lon="-2.29423">
        <ele>35.7</ele>
        <time>2013-09-26T09:06:17Z</time>
      </trkpt>
      <trkpt lat="48.66068" lon="-2.29413">
        <ele>35.7</ele>
        <time>2013-09-26T09:06:25Z</time>
      </trkpt>
      <trkpt lat="48.66069" lon="-2.29412">
        <ele>35.8</ele>
        <time>2013-09-26T09:06:26Z</time>
      </trkpt>
      <trkpt lat="48.66083" lon="-2.294">
        <ele>34.9</ele>
        <time>2013-09-26T09:06:41Z</time>
      </trkpt>
      <trkpt lat="48.66088" lon="-2.29391">
        <ele>35.2</ele>
        <time>2013-09-26T09:06:50Z</time>
      </trkpt>
      <trkpt lat="48.66094" lon="-2.29382">
        <ele>33.6</ele>
        <time>2013-09-26T09:06:59Z</time>
      </trkpt>
      <trkpt lat="48.661" lon="-2.29374">
        <ele>32.3</ele>
        <time>2013-09-26T09:07:06Z</time>
      </trkpt>
      <trkpt lat="48.66106" lon="-2.29364">
        <ele>33.2</ele>
        <time>2013-09-26T09:07:12Z</time>
      </trkpt>
      <trkpt lat="48.66113" lon="-2.29357">
        <ele>34.9</ele>
        <time>2013-09-26T09:07:21Z</time>
      </trkpt>
      <trkpt lat="48.66121" lon="-2.29352">
        <ele>35.7</ele>
        <time>2013-09-26T09:07:31Z</time>
      </trkpt>
      <trkpt lat="48.66121" lon="-2.29351">
        <ele>36</ele>
        <time>2013-09-26T09:07:32Z</time>
      </trkpt>
      <trkpt lat="48.66136" lon="-2.29339">
        <ele>37.2</ele>
        <time>2013-09-26T09:07:50Z</time>
      </trkpt>
      <trkpt lat="48.66143" lon="-2.29331">
        <ele>37.9</ele>
        <time>2013-09-26T09:08:01Z</time>
      </trkpt>
      <trkpt lat="48.66149" lon="-2.29322">
        <ele>35.1</ele>
        <time>2013-09-26T09:08:18Z</time>
      </trkpt>
      <trkpt lat="48.66153" lon="-2.29311">
        <ele>35.5</ele>
        <time>2013-09-26T09:08:30Z</time>
      </trkpt>
      <trkpt lat="48.66154" lon="-2.29298">
        <ele>36.2</ele>
        <time>2013-09-26T09:08:44Z</time>
      </trkpt>
      <trkpt lat="48.66153" lon="-2.29296">
        <ele>36</ele>
        <time>2013-09-26T09:08:45Z</time>
      </trkpt>
      <trkpt lat="48.66144" lon="-2.29277">
        <ele>30.7</ele>
        <time>2013-09-26T09:09:08Z</time>
      </trkpt>
      <trkpt lat="48.66137" lon="-2.29268">
        <ele>28</ele>
        <time>2013-09-26T09:09:17Z</time>
      </trkpt>
      <trkpt lat="48.66136" lon="-2.29255">
        <ele>26.3</ele>
        <time>2013-09-26T09:09:27Z</time>
      </trkpt>
      <trkpt lat="48.66138" lon="-2.29244">
        <ele>25.6</ele>
        <time>2013-09-26T09:09:33Z</time>
      </trkpt>
      <trkpt lat="48.66142" lon="-2.29232">
        <ele>25.7</ele>
        <time>2013-09-26T09:09:41Z</time>
      </trkpt>
      <trkpt lat="48.66145" lon="-2.2922">
        <ele>26.9</ele>
        <time>2013-09-26T09:09:50Z</time>
      </trkpt>
      <trkpt lat="48.66145" lon="-2.29219">
        <ele>26.9</ele>
        <time>2013-09-26T09:09:51Z</time>
      </trkpt>
      <trkpt lat="48.66154" lon="-2.29199">
        <ele>26.8</ele>
        <time>2013-09-26T09:10:07Z</time>
      </trkpt>
      <trkpt lat="48.66161" lon="-2.2919">
        <ele>26.3</ele>
        <time>2013-09-26T09:10:14Z</time>
      </trkpt>
      <trkpt lat="48.66167" lon="-2.29181">
        <ele>25.7</ele>
        <time>2013-09-26T09:10:21Z</time>
      </trkpt>
      <trkpt lat="48.66173" lon="-2.29172">
        <ele>26.6</ele>
        <time>2013-09-26T09:10:31Z</time>
      </trkpt>
      <trkpt lat="48.6618" lon="-2.29164">
        <ele>27.7</ele>
        <time>2013-09-26T09:10:41Z</time>
      </trkpt>
      <trkpt lat="48.66189" lon="-2.29159">
        <ele>28.5</ele>
        <time>2013-09-26T09:10:57Z</time>
      </trkpt>
      <trkpt lat="48.66189" lon="-2.29159">
        <ele>28.3</ele>
        <time>2013-09-26T09:10:58Z</time>
      </trkpt>
      <trkpt lat="48.66199" lon="-2.29141">
        <ele>28.3</ele>
        <time>2013-09-26T09:11:12Z</time>
      </trkpt>
      <trkpt lat="48.66203" lon="-2.29132">
        <ele>27.9</ele>
        <time>2013-09-26T09:11:16Z</time>
      </trkpt>
      <trkpt lat="48.66207" lon="-2.2912">
        <ele>27.1</ele>
        <time>2013-09-26T09:11:20Z</time>
      </trkpt>
      <trkpt lat="48.66211" lon="-2.2911">
        <ele>27.2</ele>
        <time>2013-09-26T09:11:25Z</time>
      </trkpt>
      <trkpt lat="48.66216" lon="-2.29099">
        <ele>26.3</ele>
        <time>2013-09-26T09:11:37Z</time>
      </trkpt>
      <trkpt lat="48.66219" lon="-2.29087">
        <ele>23.7</ele>
        <time>2013-09-26T09:11:56Z</time>
      </trkpt>
      <trkpt lat="48.66224" lon="-2.29077">
        <ele>22.3</ele>
        <time>2013-09-26T09:12:05Z</time>
      </trkpt>
      <trkpt lat="48.66224" lon="-2.29076">
        <ele>22</ele>
        <time>2013-09-26T09:12:06Z</time>
      </trkpt>
      <trkpt lat="48.66238" lon="-2.29065">
        <ele>22.3</ele>
        <time>2013-09-26T09:12:26Z</time>
      </trkpt>
      <trkpt lat="48.66245" lon="-2.29057">
        <ele>22.4</ele>
        <time>2013-09-26T09:12:34Z</time>
      </trkpt>
      <trkpt lat="48.66252" lon="-2.29049">
        <ele>21.8</ele>
        <time>2013-09-26T09:12:42Z</time>
      </trkpt>
      <trkpt lat="48.66259" lon="-2.29044">
        <ele>21.1</ele>
        <time>2013-09-26T09:12:48Z</time>
      </trkpt>
      <trkpt lat="48.66266" lon="-2.29039">
        <ele>20</ele>
        <time>2013-09-26T09:12:54Z</time>
      </trkpt>
      <trkpt lat="48.66274" lon="-2.29034">
        <ele>19.9</ele>
        <time>2013-09-26T09:13:01Z</time>
      </trkpt>
      <trkpt lat="48.6628" lon="-2.29026">
        <ele>20.5</ele>
        <time>2013-09-26T09:13:09Z</time>
      </trkpt>
      <trkpt lat="48.6628" lon="-2.29025">
        <ele>21.1</ele>
        <time>2013-09-26T09:13:10Z</time>
      </trkpt>
      <trkpt lat="48.66286" lon="-2.29003">
        <ele>22.1</ele>
        <time>2013-09-26T09:13:26Z</time>
      </trkpt>
      <trkpt lat="48.66292" lon="-2.28995">
        <ele>21.8</ele>
        <time>2013-09-26T09:13:33Z</time>
      </trkpt>
      <trkpt lat="48.66299" lon="-2.28987">
        <ele>23.1</ele>
        <time>2013-09-26T09:13:41Z</time>
      </trkpt>
      <trkpt lat="48.66304" lon="-2.28978">
        <ele>24</ele>
        <time>2013-09-26T09:13:49Z</time>
      </trkpt>
      <trkpt lat="48.66308" lon="-2.28966">
        <ele>22.9</ele>
        <time>2013-09-26T09:13:58Z</time>
      </trkpt>
      <trkpt lat="48.66304" lon="-2.28954">
        <ele>19.6</ele>
        <time>2013-09-26T09:14:08Z</time>
      </trkpt>
      <trkpt lat="48.66304" lon="-2.28941">
        <ele>15.6</ele>
        <time>2013-09-26T09:14:21Z</time>
      </trkpt>
      <trkpt lat="48.66305" lon="-2.2894">
        <ele>15.3</ele>
        <time>2013-09-26T09:14:22Z</time>
      </trkpt>
      <trkpt lat="48.66306" lon="-2.28917">
        <ele>14.6</ele>
        <time>2013-09-26T09:14:40Z</time>
      </trkpt>
      <trkpt lat="48.66306" lon="-2.28904">
        <ele>16.8</ele>
        <time>2013-09-26T09:14:49Z</time>
      </trkpt>
      <trkpt lat="48.66307" lon="-2.28891">
        <ele>18.7</ele>
        <time>2013-09-26T09:14:59Z</time>
      </trkpt>
      <trkpt lat="48.66308" lon="-2.28877">
        <ele>20</ele>
        <time>2013-09-26T09:15:08Z</time>
      </trkpt>
      <trkpt lat="48.6631" lon="-2.28864">
        <ele>21.3</ele>
        <time>2013-09-26T09:15:16Z</time>
      </trkpt>
      <trkpt lat="48.66313" lon="-2.28853">
        <ele>21.9</ele>
        <time>2013-09-26T09:15:23Z</time>
      </trkpt>
      <trkpt lat="48.66313" lon="-2.28851">
        <ele>22.1</ele>
        <time>2013-09-26T09:15:24Z</time>
      </trkpt>
      <trkpt lat="48.66317" lon="-2.28828">
        <ele>23.1</ele>
        <time>2013-09-26T09:15:39Z</time>
      </trkpt>
      <trkpt lat="48.66314" lon="-2.28815">
        <ele>20.3</ele>
        <time>2013-09-26T09:15:54Z</time>
      </trkpt>
      <trkpt lat="48.66313" lon="-2.28802">
        <ele>21.1</ele>
        <time>2013-09-26T09:16:01Z</time>
      </trkpt>
      <trkpt lat="48.66311" lon="-2.28789">
        <ele>20.1</ele>
        <time>2013-09-26T09:16:07Z</time>
      </trkpt>
      <trkpt lat="48.66309" lon="-2.28778">
        <ele>19.7</ele>
        <time>2013-09-26T09:16:13Z</time>
      </trkpt>
      <trkpt lat="48.66308" lon="-2.28766">
        <ele>19.3</ele>
        <time>2013-09-26T09:16:19Z</time>
      </trkpt>
      <trkpt lat="48.66308" lon="-2.28754">
        <ele>18.4</ele>
        <time>2013-09-26T09:16:24Z</time>
      </trkpt>
      <trkpt lat="48.66309" lon="-2.28752">
        <ele>18</ele>
        <time>2013-09-26T09:16:25Z</time>
      </trkpt>
      <trkpt lat="48.66314" lon="-2.28731">
        <ele>17.3</ele>
        <time>2013-09-26T09:16:35Z</time>
      </trkpt>
      <trkpt lat="48.66317" lon="-2.2872">
        <ele>16.5</ele>
        <time>2013-09-26T09:16:41Z</time>
      </trkpt>
      <trkpt lat="48.66321" lon="-2.28709">
        <ele>16.7</ele>
        <time>2013-09-26T09:16:48Z</time>
      </trkpt>
      <trkpt lat="48.66327" lon="-2.287">
        <ele>16.4</ele>
        <time>2013-09-26T09:16:56Z</time>
      </trkpt>
      <trkpt lat="48.66334" lon="-2.28691">
        <ele>17.2</ele>
        <time>2013-09-26T09:17:04Z</time>
      </trkpt>
      <trkpt lat="48.66341" lon="-2.28685">
        <ele>17.7</ele>
        <time>2013-09-26T09:17:10Z</time>
      </trkpt>
      <trkpt lat="48.66349" lon="-2.2868">
        <ele>18.8</ele>
        <time>2013-09-26T09:17:18Z</time>
      </trkpt>
      <trkpt lat="48.66357" lon="-2.28674">
        <ele>19.5</ele>
        <time>2013-09-26T09:17:26Z</time>
      </trkpt>
      <trkpt lat="48.66358" lon="-2.28673">
        <ele>19.7</ele>
        <time>2013-09-26T09:17:27Z</time>
      </trkpt>
      <trkpt lat="48.66372" lon="-2.28663">
        <ele>21.3</ele>
        <time>2013-09-26T09:17:40Z</time>
      </trkpt>
      <trkpt lat="48.66381" lon="-2.28661">
        <ele>22.6</ele>
        <time>2013-09-26T09:17:48Z</time>
      </trkpt>
      <trkpt lat="48.66389" lon="-2.28657">
        <ele>23.2</ele>
        <time>2013-09-26T09:17:55Z</time>
      </trkpt>
      <trkpt lat="48.66397" lon="-2.28653">
        <ele>24.2</ele>
        <time>2013-09-26T09:18:03Z</time>
      </trkpt>
      <trkpt lat="48.66404" lon="-2.28648">
        <ele>23.2</ele>
        <time>2013-09-26T09:18:10Z</time>
      </trkpt>
      <trkpt lat="48.66412" lon="-2.28642">
        <ele>23.9</ele>
        <time>2013-09-26T09:18:17Z</time>
      </trkpt>
      <trkpt lat="48.66419" lon="-2.28637">
        <ele>23.2</ele>
        <time>2013-09-26T09:18:24Z</time>
      </trkpt>
      <trkpt lat="48.66427" lon="-2.28633">
        <ele>22.7</ele>
        <time>2013-09-26T09:18:32Z</time>
      </trkpt>
      <trkpt lat="48.66428" lon="-2.28632">
        <ele>22.8</ele>
        <time>2013-09-26T09:18:33Z</time>
      </trkpt>
      <trkpt lat="48.66442" lon="-2.28624">
        <ele>27.2</ele>
        <time>2013-09-26T09:18:46Z</time>
      </trkpt>
      <trkpt lat="48.6645" lon="-2.2862">
        <ele>38.9</ele>
        <time>2013-09-26T09:18:54Z</time>
      </trkpt>
      <trkpt lat="48.66457" lon="-2.28613">
        <ele>40.3</ele>
        <time>2013-09-26T09:19:01Z</time>
      </trkpt>
      <trkpt lat="48.66463" lon="-2.28604">
        <ele>39.3</ele>
        <time>2013-09-26T09:19:08Z</time>
      </trkpt>
      <trkpt lat="48.66469" lon="-2.28595">
        <ele>36.4</ele>
        <time>2013-09-26T09:19:16Z</time>
      </trkpt>
      <trkpt lat="48.66474" lon="-2.28585">
        <ele>35.7</ele>
        <time>2013-09-26T09:19:23Z</time>
      </trkpt>
      <trkpt lat="48.6648" lon="-2.28575">
        <ele>34.6</ele>
        <time>2013-09-26T09:19:30Z</time>
      </trkpt>
      <trkpt lat="48.66487" lon="-2.28569">
        <ele>35.5</ele>
        <time>2013-09-26T09:19:37Z</time>
      </trkpt>
      <trkpt lat="48.66488" lon="-2.28569">
        <ele>35.3</ele>
        <time>2013-09-26T09:19:38Z</time>
      </trkpt>
      <trkpt lat="48.66504" lon="-2.28576">
        <ele>34.5</ele>
        <time>2013-09-26T09:20:23Z</time>
      </trkpt>
      <trkpt lat="48.66511" lon="-2.28582">
        <ele>35.3</ele>
        <time>2013-09-26T09:20:30Z</time>
      </trkpt>
      <trkpt lat="48.66515" lon="-2.28595">
        <ele>35.6</ele>
        <time>2013-09-26T09:20:57Z</time>
      </trkpt>
      <trkpt lat="48.66515" lon="-2.28595">
        <ele>36</ele>
        <time>2013-09-26T09:20:58Z</time>
      </trkpt>
      <trkpt lat="48.66507" lon="-2.28618">
        <ele>39.2</ele>
        <time>2013-09-26T09:21:18Z</time>
      </trkpt>
      <trkpt lat="48.66507" lon="-2.28632">
        <ele>41.2</ele>
        <time>2013-09-26T09:21:30Z</time>
      </trkpt>
      <trkpt lat="48.66514" lon="-2.2864">
        <ele>42.3</ele>
        <time>2013-09-26T09:21:39Z</time>
      </trkpt>
      <trkpt lat="48.66521" lon="-2.28648">
        <ele>44.2</ele>
        <time>2013-09-26T09:21:47Z</time>
      </trkpt>
      <trkpt lat="48.66528" lon="-2.28651">
        <ele>44</ele>
        <time>2013-09-26T09:21:53Z</time>
      </trkpt>
      <trkpt lat="48.66537" lon="-2.28655">
        <ele>43.3</ele>
        <time>2013-09-26T09:22:00Z</time>
      </trkpt>
      <trkpt lat="48.66538" lon="-2.28656">
        <ele>43.4</ele>
        <time>2013-09-26T09:22:01Z</time>
      </trkpt>
      <trkpt lat="48.66553" lon="-2.28657">
        <ele>43.2</ele>
        <time>2013-09-26T09:22:44Z</time>
      </trkpt>
      <trkpt lat="48.66562" lon="-2.28655">
        <ele>40.3</ele>
        <time>2013-09-26T09:22:55Z</time>
      </trkpt>
      <trkpt lat="48.6657" lon="-2.2866">
        <ele>39.8</ele>
        <time>2013-09-26T09:23:02Z</time>
      </trkpt>
      <trkpt lat="48.66571" lon="-2.28661">
        <ele>40</ele>
        <time>2013-09-26T09:23:03Z</time>
      </trkpt>
      <trkpt lat="48.66583" lon="-2.28677">
        <ele>39.4</ele>
        <time>2013-09-26T09:23:18Z</time>
      </trkpt>
      <trkpt lat="48.6659" lon="-2.28684">
        <ele>39.8</ele>
        <time>2013-09-26T09:23:25Z</time>
      </trkpt>
      <trkpt lat="48.66597" lon="-2.28691">
        <ele>40.1</ele>
        <time>2013-09-26T09:23:34Z</time>
      </trkpt>
      <trkpt lat="48.66605" lon="-2.28694">
        <ele>37.3</ele>
        <time>2013-09-26T09:23:42Z</time>
      </trkpt>
      <trkpt lat="48.66614" lon="-2.28689">
        <ele>39.1</ele>
        <time>2013-09-26T09:23:51Z</time>
      </trkpt>
      <trkpt lat="48.6662" lon="-2.28681">
        <ele>37.8</ele>
        <time>2013-09-26T09:24:01Z</time>
      </trkpt>
      <trkpt lat="48.66627" lon="-2.28675">
        <ele>36.6</ele>
        <time>2013-09-26T09:24:11Z</time>
      </trkpt>
      <trkpt lat="48.66628" lon="-2.28676">
        <ele>36.7</ele>
        <time>2013-09-26T09:24:12Z</time>
      </trkpt>
      <trkpt lat="48.66643" lon="-2.28686">
        <ele>39</ele>
        <time>2013-09-26T09:24:32Z</time>
      </trkpt>
      <trkpt lat="48.66651" lon="-2.28692">
        <ele>42</ele>
        <time>2013-09-26T09:24:58Z</time>
      </trkpt>
      <trkpt lat="48.66658" lon="-2.28701">
        <ele>43.4</ele>
        <time>2013-09-26T09:25:24Z</time>
      </trkpt>
      <trkpt lat="48.66658" lon="-2.28701">
        <ele>43.5</ele>
        <time>2013-09-26T09:25:25Z</time>
      </trkpt>
      <trkpt lat="48.66674" lon="-2.28703">
        <ele>45.1</ele>
        <time>2013-09-26T09:25:42Z</time>
      </trkpt>
      <trkpt lat="48.66682" lon="-2.28707">
        <ele>44.1</ele>
        <time>2013-09-26T09:26:03Z</time>
      </trkpt>
      <trkpt lat="48.66689" lon="-2.28715">
        <ele>44.7</ele>
        <time>2013-09-26T09:26:11Z</time>
      </trkpt>
      <trkpt lat="48.66695" lon="-2.28724">
        <ele>44.9</ele>
        <time>2013-09-26T09:26:22Z</time>
      </trkpt>
      <trkpt lat="48.66702" lon="-2.28725">
        <ele>43.6</ele>
        <time>2013-09-26T09:27:29Z</time>
      </trkpt>
      <trkpt lat="48.66702" lon="-2.28725">
        <ele>43.6</ele>
        <time>2013-09-26T09:27:29Z</time>
      </trkpt>
    </trkseg>
  </trk>
</gpx>